<?xml version="1.0" encoding="UTF-8" standalone="no" ?>
<gpx xmlns="http://www.topografix.com/GPX/1/1" xmlns:xsi="http://www.w3.org/2001/XMLSchema-instance" xsi:schemaLocation="http://www.topografix.com/GPX/1/1 http://www.topografix.com/GPX/1/1/gpx.xsd" version="1.1" creator="VisuGPX - https://www.visugpx.com">
  <metadata>
    <name>Plateau de Grézac</name>
    <desc><![CDATA[Le Plateau de Grézac depuis Lodève par les randonneurs de l\'ANR 34 le jeudi 27 mars 2014.]]></desc>
  </metadata>
  <wpt lat="43.73268" lon="3.316">
    <ele>199.69</ele>
    <name><![CDATA[0000068]]></name>
    <desc><![CDATA[]]></desc>
    <type><![CDATA[Point de départ]]></type>
  </wpt>
  <wpt lat="43.75856" lon="3.31038">
    <ele>352.69</ele>
    <name><![CDATA[0000069]]></name>
    <desc><![CDATA[]]></desc>
    <type><![CDATA[Photo]]></type>
  </wpt>
  <wpt lat="43.7329" lon="3.31586">
    <ele>181.19</ele>
    <name><![CDATA[0000070]]></name>
    <desc><![CDATA[<br /><h3>Nom: Segment 1</h3><br /><p>Temps de départ: 03/27/2014 08:36</p><p>Temps d'arrivée: 03/27/2014 16:16</p><p>Distance: 20,2 km (07:40)</p><p>Temps déplacement: 04:43</p><p>Vitesse moyenne: 2,6 km/h</p><p>Vitesse moyenne: 4,2 km/h</p><p>Vitess Max.: 25 km/h</p><p>Altitude minimale: 167 m</p><p>Altitude maximale: 680 m</p><p>Vitesse d'élévation: 200,2 m/h</p><p>Vitesse de descente: -310,4 m/h</p><p>Gain Altitude: 885 m</p><p>Perte Altitude: -913 m</p><p>Temps d'élévation: 04:25</p><p>Temps de descente: 02:56</p>]]></desc>
    <type><![CDATA[Point d'arrivée]]></type>
  </wpt>
  <trk>
    <name><![CDATA[2014-03-27 08:36]]></name>
    <desc><![CDATA[<h1>OruxMaps</h1><br /><hr align="center" width="480" style="height: 2px; width: 517px"/><h2>Nom: 2014-03-27 08:36</h2><br /><p>Temps de départ: 03/27/2014 08:36</p><p>Temps d'arrivée: 03/27/2014 16:16</p><p>Distance: 20,2 km (07:40)</p><p>Temps déplacement: 04:43</p><p>Vitesse moyenne: 2,6 km/h</p><p>Vitesse moyenne: 4,3 km/h</p><p>Vitess Max.: 25 km/h</p><p>Altitude minimale: 167 m</p><p>Altitude maximale: 680 m</p><p>Vitesse d'élévation: 200,2 m/h</p><p>Vitesse de descente: -310,4 m/h</p><p>Gain Altitude: 885 m</p><p>Perte Altitude: -913 m</p><p>Temps d'élévation: 04:25</p><p>Temps de descente: 02:56</p><hr align="center" width="480" style="height: 2px; width: 517px"/>]]></desc>
    <trkseg>
      <trkpt lat="43.73268" lon="3.316">
        <ele>199.69</ele>
        <time>2014-03-27T07:36:26Z</time>
      </trkpt>
      <trkpt lat="43.73288" lon="3.31585">
        <ele>188.69</ele>
        <time>2014-03-27T07:36:29Z</time>
      </trkpt>
      <trkpt lat="43.73287" lon="3.3156">
        <ele>183.83</ele>
        <time>2014-03-27T07:40:45Z</time>
      </trkpt>
      <trkpt lat="43.73279" lon="3.31535">
        <ele>179.92</ele>
        <time>2014-03-27T07:41:13Z</time>
      </trkpt>
      <trkpt lat="43.73284" lon="3.3151">
        <ele>176.38</ele>
        <time>2014-03-27T07:41:34Z</time>
      </trkpt>
      <trkpt lat="43.73293" lon="3.31487">
        <ele>179.91</ele>
        <time>2014-03-27T07:41:50Z</time>
      </trkpt>
      <trkpt lat="43.73302" lon="3.31464">
        <ele>180.1</ele>
        <time>2014-03-27T07:42:10Z</time>
      </trkpt>
      <trkpt lat="43.7329" lon="3.31444">
        <ele>180.01</ele>
        <time>2014-03-27T07:42:28Z</time>
      </trkpt>
      <trkpt lat="43.73294" lon="3.3142">
        <ele>174.49</ele>
        <time>2014-03-27T07:42:46Z</time>
      </trkpt>
      <trkpt lat="43.73296" lon="3.31393">
        <ele>176.43</ele>
        <time>2014-03-27T07:43:08Z</time>
      </trkpt>
      <trkpt lat="43.73308" lon="3.31374">
        <ele>173.96</ele>
        <time>2014-03-27T07:43:25Z</time>
      </trkpt>
      <trkpt lat="43.73314" lon="3.31349">
        <ele>183.11</ele>
        <time>2014-03-27T07:43:46Z</time>
      </trkpt>
      <trkpt lat="43.73324" lon="3.31327">
        <ele>188.74</ele>
        <time>2014-03-27T07:44:00Z</time>
      </trkpt>
      <trkpt lat="43.73335" lon="3.31305">
        <ele>191.29</ele>
        <time>2014-03-27T07:44:14Z</time>
      </trkpt>
      <trkpt lat="43.73339" lon="3.3128">
        <ele>196.22</ele>
        <time>2014-03-27T07:44:46Z</time>
      </trkpt>
      <trkpt lat="43.73353" lon="3.31258">
        <ele>199.71</ele>
        <time>2014-03-27T07:45:03Z</time>
      </trkpt>
      <trkpt lat="43.73366" lon="3.31238">
        <ele>198.03</ele>
        <time>2014-03-27T07:45:11Z</time>
      </trkpt>
      <trkpt lat="43.73383" lon="3.31227">
        <ele>189.48</ele>
        <time>2014-03-27T07:45:29Z</time>
      </trkpt>
      <trkpt lat="43.734" lon="3.31215">
        <ele>192.82</ele>
        <time>2014-03-27T07:46:07Z</time>
      </trkpt>
      <trkpt lat="43.73415" lon="3.312">
        <ele>191.05</ele>
        <time>2014-03-27T07:46:18Z</time>
      </trkpt>
      <trkpt lat="43.73432" lon="3.3119">
        <ele>193.08</ele>
        <time>2014-03-27T07:46:30Z</time>
      </trkpt>
      <trkpt lat="43.7345" lon="3.31185">
        <ele>189.72</ele>
        <time>2014-03-27T07:46:41Z</time>
      </trkpt>
      <trkpt lat="43.73469" lon="3.31182">
        <ele>186.32</ele>
        <time>2014-03-27T07:46:52Z</time>
      </trkpt>
      <trkpt lat="43.73486" lon="3.31171">
        <ele>193.31</ele>
        <time>2014-03-27T07:47:19Z</time>
      </trkpt>
      <trkpt lat="43.73487" lon="3.31145">
        <ele>198.95</ele>
        <time>2014-03-27T07:47:30Z</time>
      </trkpt>
      <trkpt lat="43.73503" lon="3.31129">
        <ele>198.74</ele>
        <time>2014-03-27T07:47:49Z</time>
      </trkpt>
      <trkpt lat="43.73517" lon="3.31114">
        <ele>193.59</ele>
        <time>2014-03-27T07:48:08Z</time>
      </trkpt>
      <trkpt lat="43.73535" lon="3.31115">
        <ele>198.64</ele>
        <time>2014-03-27T07:48:29Z</time>
      </trkpt>
      <trkpt lat="43.73554" lon="3.31115">
        <ele>197.97</ele>
        <time>2014-03-27T07:49:28Z</time>
      </trkpt>
      <trkpt lat="43.73571" lon="3.31125">
        <ele>190.04</ele>
        <time>2014-03-27T07:49:48Z</time>
      </trkpt>
      <trkpt lat="43.7359" lon="3.31125">
        <ele>200.03</ele>
        <time>2014-03-27T07:50:07Z</time>
      </trkpt>
      <trkpt lat="43.73608" lon="3.31125">
        <ele>204.44</ele>
        <time>2014-03-27T07:50:30Z</time>
      </trkpt>
      <trkpt lat="43.73626" lon="3.31125">
        <ele>222.93</ele>
        <time>2014-03-27T07:51:08Z</time>
      </trkpt>
      <trkpt lat="43.7364" lon="3.31143">
        <ele>221.67</ele>
        <time>2014-03-27T07:51:45Z</time>
      </trkpt>
      <trkpt lat="43.73656" lon="3.31156">
        <ele>218.83</ele>
        <time>2014-03-27T07:51:58Z</time>
      </trkpt>
      <trkpt lat="43.73668" lon="3.31137">
        <ele>225.41</ele>
        <time>2014-03-27T07:52:50Z</time>
      </trkpt>
      <trkpt lat="43.73677" lon="3.31115">
        <ele>235.82</ele>
        <time>2014-03-27T07:54:23Z</time>
      </trkpt>
      <trkpt lat="43.73683" lon="3.3109">
        <ele>239.99</ele>
        <time>2014-03-27T07:54:35Z</time>
      </trkpt>
      <trkpt lat="43.7369" lon="3.31067">
        <ele>246.34</ele>
        <time>2014-03-27T07:54:52Z</time>
      </trkpt>
      <trkpt lat="43.73708" lon="3.31065">
        <ele>244.36</ele>
        <time>2014-03-27T07:55:21Z</time>
      </trkpt>
      <trkpt lat="43.73724" lon="3.31077">
        <ele>248.94</ele>
        <time>2014-03-27T07:55:51Z</time>
      </trkpt>
      <trkpt lat="43.73742" lon="3.31081">
        <ele>253.76</ele>
        <time>2014-03-27T07:56:23Z</time>
      </trkpt>
      <trkpt lat="43.7376" lon="3.31092">
        <ele>254.33</ele>
        <time>2014-03-27T07:56:45Z</time>
      </trkpt>
      <trkpt lat="43.73777" lon="3.31099">
        <ele>258.52</ele>
        <time>2014-03-27T07:57:06Z</time>
      </trkpt>
      <trkpt lat="43.73795" lon="3.31099">
        <ele>272.69</ele>
        <time>2014-03-27T07:57:55Z</time>
      </trkpt>
      <trkpt lat="43.73808" lon="3.31082">
        <ele>283.35</ele>
        <time>2014-03-27T07:58:17Z</time>
      </trkpt>
      <trkpt lat="43.73824" lon="3.31069">
        <ele>285.24</ele>
        <time>2014-03-27T07:58:43Z</time>
      </trkpt>
      <trkpt lat="43.73837" lon="3.3105">
        <ele>287.08</ele>
        <time>2014-03-27T07:59:01Z</time>
      </trkpt>
      <trkpt lat="43.73853" lon="3.31039">
        <ele>283.45</ele>
        <time>2014-03-27T07:59:19Z</time>
      </trkpt>
      <trkpt lat="43.73868" lon="3.31022">
        <ele>292.87</ele>
        <time>2014-03-27T07:59:55Z</time>
      </trkpt>
      <trkpt lat="43.73883" lon="3.31008">
        <ele>300.47</ele>
        <time>2014-03-27T08:00:18Z</time>
      </trkpt>
      <trkpt lat="43.739" lon="3.30997">
        <ele>302.27</ele>
        <time>2014-03-27T08:00:42Z</time>
      </trkpt>
      <trkpt lat="43.73917" lon="3.30987">
        <ele>305.55</ele>
        <time>2014-03-27T08:01:17Z</time>
      </trkpt>
      <trkpt lat="43.73933" lon="3.30976">
        <ele>306.83</ele>
        <time>2014-03-27T08:01:45Z</time>
      </trkpt>
      <trkpt lat="43.73951" lon="3.30983">
        <ele>311.98</ele>
        <time>2014-03-27T08:02:05Z</time>
      </trkpt>
      <trkpt lat="43.73967" lon="3.3097">
        <ele>314.66</ele>
        <time>2014-03-27T08:02:24Z</time>
      </trkpt>
      <trkpt lat="43.73979" lon="3.30951">
        <ele>319.54</ele>
        <time>2014-03-27T08:02:52Z</time>
      </trkpt>
      <trkpt lat="43.73977" lon="3.30924">
        <ele>322.74</ele>
        <time>2014-03-27T08:12:23Z</time>
      </trkpt>
      <trkpt lat="43.73977" lon="3.30897">
        <ele>323.64</ele>
        <time>2014-03-27T08:12:34Z</time>
      </trkpt>
      <trkpt lat="43.73978" lon="3.30871">
        <ele>326.15</ele>
        <time>2014-03-27T08:12:45Z</time>
      </trkpt>
      <trkpt lat="43.73977" lon="3.30846">
        <ele>333.82</ele>
        <time>2014-03-27T08:13:00Z</time>
      </trkpt>
      <trkpt lat="43.73976" lon="3.30821">
        <ele>336.62</ele>
        <time>2014-03-27T08:13:13Z</time>
      </trkpt>
      <trkpt lat="43.73978" lon="3.30796">
        <ele>334.93</ele>
        <time>2014-03-27T08:13:27Z</time>
      </trkpt>
      <trkpt lat="43.73957" lon="3.30772">
        <ele>332.55</ele>
        <time>2014-03-27T08:13:38Z</time>
      </trkpt>
      <trkpt lat="43.73943" lon="3.30753">
        <ele>332.08</ele>
        <time>2014-03-27T08:14:04Z</time>
      </trkpt>
      <trkpt lat="43.73932" lon="3.30733">
        <ele>343.27</ele>
        <time>2014-03-27T08:14:16Z</time>
      </trkpt>
      <trkpt lat="43.73939" lon="3.30711">
        <ele>335.77</ele>
        <time>2014-03-27T08:14:32Z</time>
      </trkpt>
      <trkpt lat="43.73957" lon="3.30706">
        <ele>326.6</ele>
        <time>2014-03-27T08:14:46Z</time>
      </trkpt>
      <trkpt lat="43.73975" lon="3.30706">
        <ele>327.64</ele>
        <time>2014-03-27T08:15:02Z</time>
      </trkpt>
      <trkpt lat="43.73993" lon="3.30701">
        <ele>336.23</ele>
        <time>2014-03-27T08:15:14Z</time>
      </trkpt>
      <trkpt lat="43.74011" lon="3.30699">
        <ele>334.21</ele>
        <time>2014-03-27T08:15:28Z</time>
      </trkpt>
      <trkpt lat="43.74007" lon="3.30674">
        <ele>338.13</ele>
        <time>2014-03-27T08:15:45Z</time>
      </trkpt>
      <trkpt lat="43.74013" lon="3.30649">
        <ele>332.23</ele>
        <time>2014-03-27T08:15:59Z</time>
      </trkpt>
      <trkpt lat="43.74026" lon="3.30616">
        <ele>329.21</ele>
        <time>2014-03-27T08:16:18Z</time>
      </trkpt>
      <trkpt lat="43.74018" lon="3.30592">
        <ele>329.19</ele>
        <time>2014-03-27T08:16:33Z</time>
      </trkpt>
      <trkpt lat="43.74009" lon="3.30569">
        <ele>337.61</ele>
        <time>2014-03-27T08:16:48Z</time>
      </trkpt>
      <trkpt lat="43.74008" lon="3.30543">
        <ele>337.01</ele>
        <time>2014-03-27T08:17:05Z</time>
      </trkpt>
      <trkpt lat="43.74005" lon="3.30518">
        <ele>342.71</ele>
        <time>2014-03-27T08:17:22Z</time>
      </trkpt>
      <trkpt lat="43.74013" lon="3.30495">
        <ele>340.12</ele>
        <time>2014-03-27T08:17:46Z</time>
      </trkpt>
      <trkpt lat="43.74028" lon="3.30482">
        <ele>337.88</ele>
        <time>2014-03-27T08:18:00Z</time>
      </trkpt>
      <trkpt lat="43.74044" lon="3.30468">
        <ele>340.9</ele>
        <time>2014-03-27T08:18:15Z</time>
      </trkpt>
      <trkpt lat="43.74061" lon="3.30457">
        <ele>343.48</ele>
        <time>2014-03-27T08:18:27Z</time>
      </trkpt>
      <trkpt lat="43.74076" lon="3.30442">
        <ele>346.21</ele>
        <time>2014-03-27T08:18:39Z</time>
      </trkpt>
      <trkpt lat="43.74086" lon="3.30421">
        <ele>347.37</ele>
        <time>2014-03-27T08:18:52Z</time>
      </trkpt>
      <trkpt lat="43.74095" lon="3.30397">
        <ele>346.58</ele>
        <time>2014-03-27T08:19:07Z</time>
      </trkpt>
      <trkpt lat="43.74098" lon="3.30372">
        <ele>352.8</ele>
        <time>2014-03-27T08:19:22Z</time>
      </trkpt>
      <trkpt lat="43.74107" lon="3.30349">
        <ele>354.07</ele>
        <time>2014-03-27T08:19:36Z</time>
      </trkpt>
      <trkpt lat="43.74118" lon="3.30328">
        <ele>354.66</ele>
        <time>2014-03-27T08:19:51Z</time>
      </trkpt>
      <trkpt lat="43.74133" lon="3.30312">
        <ele>350.05</ele>
        <time>2014-03-27T08:20:08Z</time>
      </trkpt>
      <trkpt lat="43.74149" lon="3.30297">
        <ele>347.32</ele>
        <time>2014-03-27T08:20:23Z</time>
      </trkpt>
      <trkpt lat="43.74164" lon="3.30284">
        <ele>348.71</ele>
        <time>2014-03-27T08:20:38Z</time>
      </trkpt>
      <trkpt lat="43.74174" lon="3.30262">
        <ele>349.7</ele>
        <time>2014-03-27T08:20:53Z</time>
      </trkpt>
      <trkpt lat="43.74184" lon="3.30239">
        <ele>351.61</ele>
        <time>2014-03-27T08:21:15Z</time>
      </trkpt>
      <trkpt lat="43.74193" lon="3.30217">
        <ele>356.59</ele>
        <time>2014-03-27T08:21:28Z</time>
      </trkpt>
      <trkpt lat="43.74205" lon="3.30196">
        <ele>359.07</ele>
        <time>2014-03-27T08:21:41Z</time>
      </trkpt>
      <trkpt lat="43.74212" lon="3.30173">
        <ele>359.59</ele>
        <time>2014-03-27T08:21:52Z</time>
      </trkpt>
      <trkpt lat="43.74212" lon="3.30146">
        <ele>359.33</ele>
        <time>2014-03-27T08:22:07Z</time>
      </trkpt>
      <trkpt lat="43.74207" lon="3.30122">
        <ele>361.88</ele>
        <time>2014-03-27T08:22:17Z</time>
      </trkpt>
      <trkpt lat="43.742" lon="3.30099">
        <ele>369.91</ele>
        <time>2014-03-27T08:22:29Z</time>
      </trkpt>
      <trkpt lat="43.74197" lon="3.30073">
        <ele>368.18</ele>
        <time>2014-03-27T08:22:46Z</time>
      </trkpt>
      <trkpt lat="43.74195" lon="3.30048">
        <ele>365.57</ele>
        <time>2014-03-27T08:22:59Z</time>
      </trkpt>
      <trkpt lat="43.74193" lon="3.30023">
        <ele>368.49</ele>
        <time>2014-03-27T08:23:19Z</time>
      </trkpt>
      <trkpt lat="43.74187" lon="3.29999">
        <ele>369.31</ele>
        <time>2014-03-27T08:23:32Z</time>
      </trkpt>
      <trkpt lat="43.74194" lon="3.29974">
        <ele>372.05</ele>
        <time>2014-03-27T08:23:49Z</time>
      </trkpt>
      <trkpt lat="43.74204" lon="3.29952">
        <ele>372.33</ele>
        <time>2014-03-27T08:24:04Z</time>
      </trkpt>
      <trkpt lat="43.74208" lon="3.29927">
        <ele>374.68</ele>
        <time>2014-03-27T08:24:19Z</time>
      </trkpt>
      <trkpt lat="43.74217" lon="3.29906">
        <ele>371.38</ele>
        <time>2014-03-27T08:24:52Z</time>
      </trkpt>
      <trkpt lat="43.74233" lon="3.29893">
        <ele>373.46</ele>
        <time>2014-03-27T08:25:22Z</time>
      </trkpt>
      <trkpt lat="43.7425" lon="3.29883">
        <ele>378.24</ele>
        <time>2014-03-27T08:25:47Z</time>
      </trkpt>
      <trkpt lat="43.74265" lon="3.29869">
        <ele>382.87</ele>
        <time>2014-03-27T08:26:08Z</time>
      </trkpt>
      <trkpt lat="43.74283" lon="3.29866">
        <ele>383.67</ele>
        <time>2014-03-27T08:26:36Z</time>
      </trkpt>
      <trkpt lat="43.74301" lon="3.2987">
        <ele>383.56</ele>
        <time>2014-03-27T08:26:59Z</time>
      </trkpt>
      <trkpt lat="43.74319" lon="3.29864">
        <ele>386.42</ele>
        <time>2014-03-27T08:27:16Z</time>
      </trkpt>
      <trkpt lat="43.74332" lon="3.29846">
        <ele>386.67</ele>
        <time>2014-03-27T08:27:42Z</time>
      </trkpt>
      <trkpt lat="43.7434" lon="3.29823">
        <ele>390.67</ele>
        <time>2014-03-27T08:28:00Z</time>
      </trkpt>
      <trkpt lat="43.74349" lon="3.29802">
        <ele>392.45</ele>
        <time>2014-03-27T08:28:24Z</time>
      </trkpt>
      <trkpt lat="43.74354" lon="3.29776">
        <ele>395.63</ele>
        <time>2014-03-27T08:28:44Z</time>
      </trkpt>
      <trkpt lat="43.74363" lon="3.29753">
        <ele>400</ele>
        <time>2014-03-27T08:29:02Z</time>
      </trkpt>
      <trkpt lat="43.74368" lon="3.2973">
        <ele>407.95</ele>
        <time>2014-03-27T08:29:19Z</time>
      </trkpt>
      <trkpt lat="43.74375" lon="3.29705">
        <ele>412.55</ele>
        <time>2014-03-27T08:29:43Z</time>
      </trkpt>
      <trkpt lat="43.74384" lon="3.29683">
        <ele>408.92</ele>
        <time>2014-03-27T08:30:01Z</time>
      </trkpt>
      <trkpt lat="43.74389" lon="3.29659">
        <ele>412.57</ele>
        <time>2014-03-27T08:30:22Z</time>
      </trkpt>
      <trkpt lat="43.74397" lon="3.29637">
        <ele>416.41</ele>
        <time>2014-03-27T08:30:37Z</time>
      </trkpt>
      <trkpt lat="43.74415" lon="3.29629">
        <ele>419.63</ele>
        <time>2014-03-27T08:30:57Z</time>
      </trkpt>
      <trkpt lat="43.74433" lon="3.29621">
        <ele>417.44</ele>
        <time>2014-03-27T08:31:25Z</time>
      </trkpt>
      <trkpt lat="43.7445" lon="3.29613">
        <ele>416.35</ele>
        <time>2014-03-27T08:31:40Z</time>
      </trkpt>
      <trkpt lat="43.74468" lon="3.29608">
        <ele>418.5</ele>
        <time>2014-03-27T08:31:56Z</time>
      </trkpt>
      <trkpt lat="43.74486" lon="3.29609">
        <ele>414.97</ele>
        <time>2014-03-27T08:32:20Z</time>
      </trkpt>
      <trkpt lat="43.74505" lon="3.29614">
        <ele>418.52</ele>
        <time>2014-03-27T08:32:34Z</time>
      </trkpt>
      <trkpt lat="43.74523" lon="3.29621">
        <ele>420.65</ele>
        <time>2014-03-27T08:32:49Z</time>
      </trkpt>
      <trkpt lat="43.74539" lon="3.29632">
        <ele>423.06</ele>
        <time>2014-03-27T08:33:07Z</time>
      </trkpt>
      <trkpt lat="43.74558" lon="3.29637">
        <ele>423.69</ele>
        <time>2014-03-27T08:33:35Z</time>
      </trkpt>
      <trkpt lat="43.74575" lon="3.29633">
        <ele>428.12</ele>
        <time>2014-03-27T08:33:50Z</time>
      </trkpt>
      <trkpt lat="43.74593" lon="3.29633">
        <ele>427.44</ele>
        <time>2014-03-27T08:34:08Z</time>
      </trkpt>
      <trkpt lat="43.74612" lon="3.29636">
        <ele>432.38</ele>
        <time>2014-03-27T08:34:35Z</time>
      </trkpt>
      <trkpt lat="43.7463" lon="3.29639">
        <ele>435.94</ele>
        <time>2014-03-27T08:34:53Z</time>
      </trkpt>
      <trkpt lat="43.74648" lon="3.29646">
        <ele>437.82</ele>
        <time>2014-03-27T08:35:16Z</time>
      </trkpt>
      <trkpt lat="43.74663" lon="3.29659">
        <ele>436.46</ele>
        <time>2014-03-27T08:35:35Z</time>
      </trkpt>
      <trkpt lat="43.74679" lon="3.29673">
        <ele>441.73</ele>
        <time>2014-03-27T08:35:56Z</time>
      </trkpt>
      <trkpt lat="43.74697" lon="3.29677">
        <ele>445.1</ele>
        <time>2014-03-27T08:36:30Z</time>
      </trkpt>
      <trkpt lat="43.74715" lon="3.29671">
        <ele>448.15</ele>
        <time>2014-03-27T08:36:51Z</time>
      </trkpt>
      <trkpt lat="43.74733" lon="3.29664">
        <ele>454.58</ele>
        <time>2014-03-27T08:37:11Z</time>
      </trkpt>
      <trkpt lat="43.74751" lon="3.29659">
        <ele>456.19</ele>
        <time>2014-03-27T08:37:39Z</time>
      </trkpt>
      <trkpt lat="43.74769" lon="3.29651">
        <ele>460.47</ele>
        <time>2014-03-27T08:38:04Z</time>
      </trkpt>
      <trkpt lat="43.74787" lon="3.29648">
        <ele>458.28</ele>
        <time>2014-03-27T08:38:28Z</time>
      </trkpt>
      <trkpt lat="43.74805" lon="3.29642">
        <ele>459.66</ele>
        <time>2014-03-27T08:38:50Z</time>
      </trkpt>
      <trkpt lat="43.74823" lon="3.29636">
        <ele>464.25</ele>
        <time>2014-03-27T08:39:18Z</time>
      </trkpt>
      <trkpt lat="43.74839" lon="3.29626">
        <ele>467.57</ele>
        <time>2014-03-27T08:39:36Z</time>
      </trkpt>
      <trkpt lat="43.74856" lon="3.29615">
        <ele>473.14</ele>
        <time>2014-03-27T08:39:56Z</time>
      </trkpt>
      <trkpt lat="43.74873" lon="3.29605">
        <ele>475.59</ele>
        <time>2014-03-27T08:40:16Z</time>
      </trkpt>
      <trkpt lat="43.74891" lon="3.29602">
        <ele>475.77</ele>
        <time>2014-03-27T08:40:38Z</time>
      </trkpt>
      <trkpt lat="43.74908" lon="3.29592">
        <ele>476.65</ele>
        <time>2014-03-27T08:41:01Z</time>
      </trkpt>
      <trkpt lat="43.74924" lon="3.29579">
        <ele>479.44</ele>
        <time>2014-03-27T08:41:20Z</time>
      </trkpt>
      <trkpt lat="43.74939" lon="3.29563">
        <ele>484.92</ele>
        <time>2014-03-27T08:41:38Z</time>
      </trkpt>
      <trkpt lat="43.74952" lon="3.29545">
        <ele>488</ele>
        <time>2014-03-27T08:41:56Z</time>
      </trkpt>
      <trkpt lat="43.74969" lon="3.29535">
        <ele>490.65</ele>
        <time>2014-03-27T08:42:21Z</time>
      </trkpt>
      <trkpt lat="43.7498" lon="3.29514">
        <ele>494.4</ele>
        <time>2014-03-27T08:42:39Z</time>
      </trkpt>
      <trkpt lat="43.74988" lon="3.29491">
        <ele>495.72</ele>
        <time>2014-03-27T08:42:57Z</time>
      </trkpt>
      <trkpt lat="43.74998" lon="3.2947">
        <ele>496.7</ele>
        <time>2014-03-27T08:43:16Z</time>
      </trkpt>
      <trkpt lat="43.75011" lon="3.29451">
        <ele>496.79</ele>
        <time>2014-03-27T08:43:32Z</time>
      </trkpt>
      <trkpt lat="43.75022" lon="3.2943">
        <ele>498.66</ele>
        <time>2014-03-27T08:45:42Z</time>
      </trkpt>
      <trkpt lat="43.75033" lon="3.29411">
        <ele>502.68</ele>
        <time>2014-03-27T08:45:56Z</time>
      </trkpt>
      <trkpt lat="43.75046" lon="3.29394">
        <ele>505.55</ele>
        <time>2014-03-27T08:46:10Z</time>
      </trkpt>
      <trkpt lat="43.75059" lon="3.29375">
        <ele>504.82</ele>
        <time>2014-03-27T08:46:24Z</time>
      </trkpt>
      <trkpt lat="43.75073" lon="3.29359">
        <ele>504.45</ele>
        <time>2014-03-27T08:46:39Z</time>
      </trkpt>
      <trkpt lat="43.75088" lon="3.29342">
        <ele>503.25</ele>
        <time>2014-03-27T08:46:57Z</time>
      </trkpt>
      <trkpt lat="43.75105" lon="3.29332">
        <ele>504.66</ele>
        <time>2014-03-27T08:47:16Z</time>
      </trkpt>
      <trkpt lat="43.75121" lon="3.29317">
        <ele>508.2</ele>
        <time>2014-03-27T08:47:32Z</time>
      </trkpt>
      <trkpt lat="43.75136" lon="3.29303">
        <ele>510.19</ele>
        <time>2014-03-27T08:47:50Z</time>
      </trkpt>
      <trkpt lat="43.75149" lon="3.29285">
        <ele>511.94</ele>
        <time>2014-03-27T08:48:07Z</time>
      </trkpt>
      <trkpt lat="43.75164" lon="3.29271">
        <ele>512.83</ele>
        <time>2014-03-27T08:48:23Z</time>
      </trkpt>
      <trkpt lat="43.75178" lon="3.29255">
        <ele>513.69</ele>
        <time>2014-03-27T08:48:46Z</time>
      </trkpt>
      <trkpt lat="43.75194" lon="3.29242">
        <ele>511.84</ele>
        <time>2014-03-27T08:49:17Z</time>
      </trkpt>
      <trkpt lat="43.7521" lon="3.2923">
        <ele>510.71</ele>
        <time>2014-03-27T08:49:41Z</time>
      </trkpt>
      <trkpt lat="43.75223" lon="3.29212">
        <ele>516.94</ele>
        <time>2014-03-27T08:50:00Z</time>
      </trkpt>
      <trkpt lat="43.75235" lon="3.29193">
        <ele>518.57</ele>
        <time>2014-03-27T08:50:19Z</time>
      </trkpt>
      <trkpt lat="43.7525" lon="3.29178">
        <ele>516.13</ele>
        <time>2014-03-27T08:50:41Z</time>
      </trkpt>
      <trkpt lat="43.75261" lon="3.29158">
        <ele>518.66</ele>
        <time>2014-03-27T08:51:00Z</time>
      </trkpt>
      <trkpt lat="43.75273" lon="3.29138">
        <ele>521.31</ele>
        <time>2014-03-27T08:51:20Z</time>
      </trkpt>
      <trkpt lat="43.75282" lon="3.29116">
        <ele>526.1</ele>
        <time>2014-03-27T08:51:40Z</time>
      </trkpt>
      <trkpt lat="43.75289" lon="3.29093">
        <ele>529.66</ele>
        <time>2014-03-27T08:51:58Z</time>
      </trkpt>
      <trkpt lat="43.75306" lon="3.29082">
        <ele>531.67</ele>
        <time>2014-03-27T08:52:25Z</time>
      </trkpt>
      <trkpt lat="43.75324" lon="3.29079">
        <ele>537.01</ele>
        <time>2014-03-27T08:52:48Z</time>
      </trkpt>
      <trkpt lat="43.75343" lon="3.29078">
        <ele>538.35</ele>
        <time>2014-03-27T08:53:06Z</time>
      </trkpt>
      <trkpt lat="43.75361" lon="3.29075">
        <ele>539.71</ele>
        <time>2014-03-27T08:53:22Z</time>
      </trkpt>
      <trkpt lat="43.7538" lon="3.2907">
        <ele>536.83</ele>
        <time>2014-03-27T08:53:40Z</time>
      </trkpt>
      <trkpt lat="43.75398" lon="3.29068">
        <ele>539.52</ele>
        <time>2014-03-27T08:53:57Z</time>
      </trkpt>
      <trkpt lat="43.75416" lon="3.29066">
        <ele>541.93</ele>
        <time>2014-03-27T08:54:16Z</time>
      </trkpt>
      <trkpt lat="43.75435" lon="3.29064">
        <ele>544.71</ele>
        <time>2014-03-27T08:54:38Z</time>
      </trkpt>
      <trkpt lat="43.75453" lon="3.29056">
        <ele>545.3</ele>
        <time>2014-03-27T08:54:57Z</time>
      </trkpt>
      <trkpt lat="43.75471" lon="3.2905">
        <ele>545.31</ele>
        <time>2014-03-27T08:55:18Z</time>
      </trkpt>
      <trkpt lat="43.75489" lon="3.29041">
        <ele>546.69</ele>
        <time>2014-03-27T08:55:38Z</time>
      </trkpt>
      <trkpt lat="43.75505" lon="3.29029">
        <ele>546.7</ele>
        <time>2014-03-27T08:55:58Z</time>
      </trkpt>
      <trkpt lat="43.75519" lon="3.29013">
        <ele>549.08</ele>
        <time>2014-03-27T08:56:19Z</time>
      </trkpt>
      <trkpt lat="43.75534" lon="3.28997">
        <ele>553.63</ele>
        <time>2014-03-27T08:56:38Z</time>
      </trkpt>
      <trkpt lat="43.75551" lon="3.28987">
        <ele>555.07</ele>
        <time>2014-03-27T08:56:58Z</time>
      </trkpt>
      <trkpt lat="43.75568" lon="3.28977">
        <ele>558.86</ele>
        <time>2014-03-27T08:57:20Z</time>
      </trkpt>
      <trkpt lat="43.75584" lon="3.28965">
        <ele>560.57</ele>
        <time>2014-03-27T08:57:38Z</time>
      </trkpt>
      <trkpt lat="43.75599" lon="3.28951">
        <ele>558.08</ele>
        <time>2014-03-27T08:57:56Z</time>
      </trkpt>
      <trkpt lat="43.75613" lon="3.28935">
        <ele>558.68</ele>
        <time>2014-03-27T08:58:14Z</time>
      </trkpt>
      <trkpt lat="43.75628" lon="3.2892">
        <ele>555.54</ele>
        <time>2014-03-27T08:58:34Z</time>
      </trkpt>
      <trkpt lat="43.7564" lon="3.28901">
        <ele>557.19</ele>
        <time>2014-03-27T09:07:01Z</time>
      </trkpt>
      <trkpt lat="43.75657" lon="3.28895">
        <ele>552.62</ele>
        <time>2014-03-27T09:07:25Z</time>
      </trkpt>
      <trkpt lat="43.75674" lon="3.28885">
        <ele>553.58</ele>
        <time>2014-03-27T09:07:50Z</time>
      </trkpt>
      <trkpt lat="43.75689" lon="3.2887">
        <ele>555.94</ele>
        <time>2014-03-27T09:08:14Z</time>
      </trkpt>
      <trkpt lat="43.75705" lon="3.28858">
        <ele>559.42</ele>
        <time>2014-03-27T09:08:37Z</time>
      </trkpt>
      <trkpt lat="43.7572" lon="3.28844">
        <ele>560.25</ele>
        <time>2014-03-27T09:08:57Z</time>
      </trkpt>
      <trkpt lat="43.75737" lon="3.28833">
        <ele>561.88</ele>
        <time>2014-03-27T09:09:16Z</time>
      </trkpt>
      <trkpt lat="43.75753" lon="3.2882">
        <ele>561.66</ele>
        <time>2014-03-27T09:09:35Z</time>
      </trkpt>
      <trkpt lat="43.7577" lon="3.28813">
        <ele>559.95</ele>
        <time>2014-03-27T09:09:54Z</time>
      </trkpt>
      <trkpt lat="43.75788" lon="3.28803">
        <ele>558.34</ele>
        <time>2014-03-27T09:10:13Z</time>
      </trkpt>
      <trkpt lat="43.75803" lon="3.28789">
        <ele>560.66</ele>
        <time>2014-03-27T09:10:32Z</time>
      </trkpt>
      <trkpt lat="43.7582" lon="3.28779">
        <ele>561.36</ele>
        <time>2014-03-27T09:10:51Z</time>
      </trkpt>
      <trkpt lat="43.75837" lon="3.28769">
        <ele>563.09</ele>
        <time>2014-03-27T09:11:11Z</time>
      </trkpt>
      <trkpt lat="43.75854" lon="3.28758">
        <ele>569.81</ele>
        <time>2014-03-27T09:11:34Z</time>
      </trkpt>
      <trkpt lat="43.75872" lon="3.28754">
        <ele>573.31</ele>
        <time>2014-03-27T09:12:00Z</time>
      </trkpt>
      <trkpt lat="43.75891" lon="3.28754">
        <ele>575.72</ele>
        <time>2014-03-27T09:12:28Z</time>
      </trkpt>
      <trkpt lat="43.75908" lon="3.28765">
        <ele>581.18</ele>
        <time>2014-03-27T09:12:44Z</time>
      </trkpt>
      <trkpt lat="43.75923" lon="3.28778">
        <ele>583.88</ele>
        <time>2014-03-27T09:13:01Z</time>
      </trkpt>
      <trkpt lat="43.75935" lon="3.28797">
        <ele>583.55</ele>
        <time>2014-03-27T09:13:19Z</time>
      </trkpt>
      <trkpt lat="43.75948" lon="3.28814">
        <ele>583.51</ele>
        <time>2014-03-27T09:13:39Z</time>
      </trkpt>
      <trkpt lat="43.75965" lon="3.28824">
        <ele>582.46</ele>
        <time>2014-03-27T09:14:15Z</time>
      </trkpt>
      <trkpt lat="43.75984" lon="3.28828">
        <ele>583.72</ele>
        <time>2014-03-27T09:14:31Z</time>
      </trkpt>
      <trkpt lat="43.76003" lon="3.28826">
        <ele>579.01</ele>
        <time>2014-03-27T09:14:49Z</time>
      </trkpt>
      <trkpt lat="43.76017" lon="3.28811">
        <ele>583.56</ele>
        <time>2014-03-27T09:15:05Z</time>
      </trkpt>
      <trkpt lat="43.76033" lon="3.28797">
        <ele>580.96</ele>
        <time>2014-03-27T09:15:25Z</time>
      </trkpt>
      <trkpt lat="43.76047" lon="3.28781">
        <ele>579.7</ele>
        <time>2014-03-27T09:15:41Z</time>
      </trkpt>
      <trkpt lat="43.76056" lon="3.28759">
        <ele>582.59</ele>
        <time>2014-03-27T09:15:56Z</time>
      </trkpt>
      <trkpt lat="43.76069" lon="3.2874">
        <ele>580.26</ele>
        <time>2014-03-27T09:16:15Z</time>
      </trkpt>
      <trkpt lat="43.76084" lon="3.28725">
        <ele>578.26</ele>
        <time>2014-03-27T09:16:34Z</time>
      </trkpt>
      <trkpt lat="43.76101" lon="3.28713">
        <ele>586.88</ele>
        <time>2014-03-27T09:16:53Z</time>
      </trkpt>
      <trkpt lat="43.76118" lon="3.28704">
        <ele>592.99</ele>
        <time>2014-03-27T09:17:10Z</time>
      </trkpt>
      <trkpt lat="43.76137" lon="3.28709">
        <ele>583.51</ele>
        <time>2014-03-27T09:17:27Z</time>
      </trkpt>
      <trkpt lat="43.76155" lon="3.28714">
        <ele>579.95</ele>
        <time>2014-03-27T09:17:48Z</time>
      </trkpt>
      <trkpt lat="43.76172" lon="3.28723">
        <ele>579.31</ele>
        <time>2014-03-27T09:18:07Z</time>
      </trkpt>
      <trkpt lat="43.76188" lon="3.2871">
        <ele>589.16</ele>
        <time>2014-03-27T09:18:22Z</time>
      </trkpt>
      <trkpt lat="43.76196" lon="3.28688">
        <ele>590.32</ele>
        <time>2014-03-27T09:18:37Z</time>
      </trkpt>
      <trkpt lat="43.76199" lon="3.28663">
        <ele>592.27</ele>
        <time>2014-03-27T09:18:53Z</time>
      </trkpt>
      <trkpt lat="43.762" lon="3.28638">
        <ele>590.63</ele>
        <time>2014-03-27T09:19:08Z</time>
      </trkpt>
      <trkpt lat="43.762" lon="3.28613">
        <ele>597.07</ele>
        <time>2014-03-27T09:19:30Z</time>
      </trkpt>
      <trkpt lat="43.76195" lon="3.28588">
        <ele>601.8</ele>
        <time>2014-03-27T09:19:54Z</time>
      </trkpt>
      <trkpt lat="43.76197" lon="3.28563">
        <ele>602.51</ele>
        <time>2014-03-27T09:20:13Z</time>
      </trkpt>
      <trkpt lat="43.76198" lon="3.28538">
        <ele>605.81</ele>
        <time>2014-03-27T09:20:33Z</time>
      </trkpt>
      <trkpt lat="43.76201" lon="3.28512">
        <ele>607.72</ele>
        <time>2014-03-27T09:20:54Z</time>
      </trkpt>
      <trkpt lat="43.76208" lon="3.28488">
        <ele>611.81</ele>
        <time>2014-03-27T09:21:15Z</time>
      </trkpt>
      <trkpt lat="43.7622" lon="3.28469">
        <ele>615.39</ele>
        <time>2014-03-27T09:21:41Z</time>
      </trkpt>
      <trkpt lat="43.76227" lon="3.28446">
        <ele>618.63</ele>
        <time>2014-03-27T09:21:58Z</time>
      </trkpt>
      <trkpt lat="43.76228" lon="3.28421">
        <ele>616.7</ele>
        <time>2014-03-27T09:22:18Z</time>
      </trkpt>
      <trkpt lat="43.76227" lon="3.28395">
        <ele>622.46</ele>
        <time>2014-03-27T09:22:44Z</time>
      </trkpt>
      <trkpt lat="43.76223" lon="3.28371">
        <ele>625.19</ele>
        <time>2014-03-27T09:23:08Z</time>
      </trkpt>
      <trkpt lat="43.76229" lon="3.28347">
        <ele>627.42</ele>
        <time>2014-03-27T09:23:39Z</time>
      </trkpt>
      <trkpt lat="43.76231" lon="3.28322">
        <ele>631.18</ele>
        <time>2014-03-27T09:24:02Z</time>
      </trkpt>
      <trkpt lat="43.76238" lon="3.28298">
        <ele>635.4</ele>
        <time>2014-03-27T09:24:27Z</time>
      </trkpt>
      <trkpt lat="43.76245" lon="3.28275">
        <ele>645.82</ele>
        <time>2014-03-27T09:33:42Z</time>
      </trkpt>
      <trkpt lat="43.76254" lon="3.28253">
        <ele>646.67</ele>
        <time>2014-03-27T09:36:25Z</time>
      </trkpt>
      <trkpt lat="43.76261" lon="3.28229">
        <ele>647.81</ele>
        <time>2014-03-27T09:36:43Z</time>
      </trkpt>
      <trkpt lat="43.7627" lon="3.28206">
        <ele>650.68</ele>
        <time>2014-03-27T09:36:59Z</time>
      </trkpt>
      <trkpt lat="43.76275" lon="3.28182">
        <ele>649.7</ele>
        <time>2014-03-27T09:37:16Z</time>
      </trkpt>
      <trkpt lat="43.76285" lon="3.28161">
        <ele>649.77</ele>
        <time>2014-03-27T09:37:35Z</time>
      </trkpt>
      <trkpt lat="43.76293" lon="3.28138">
        <ele>649.69</ele>
        <time>2014-03-27T09:37:53Z</time>
      </trkpt>
      <trkpt lat="43.76301" lon="3.28114">
        <ele>650.1</ele>
        <time>2014-03-27T09:38:11Z</time>
      </trkpt>
      <trkpt lat="43.76307" lon="3.28091">
        <ele>648.64</ele>
        <time>2014-03-27T09:38:29Z</time>
      </trkpt>
      <trkpt lat="43.76313" lon="3.28067">
        <ele>650.91</ele>
        <time>2014-03-27T09:38:51Z</time>
      </trkpt>
      <trkpt lat="43.76318" lon="3.28043">
        <ele>654.38</ele>
        <time>2014-03-27T09:39:05Z</time>
      </trkpt>
      <trkpt lat="43.76326" lon="3.2802">
        <ele>651.28</ele>
        <time>2014-03-27T09:39:23Z</time>
      </trkpt>
      <trkpt lat="43.76336" lon="3.27998">
        <ele>651.45</ele>
        <time>2014-03-27T09:39:41Z</time>
      </trkpt>
      <trkpt lat="43.76343" lon="3.27974">
        <ele>652.33</ele>
        <time>2014-03-27T09:39:57Z</time>
      </trkpt>
      <trkpt lat="43.76359" lon="3.2796">
        <ele>647.14</ele>
        <time>2014-03-27T09:40:16Z</time>
      </trkpt>
      <trkpt lat="43.76374" lon="3.27948">
        <ele>646.43</ele>
        <time>2014-03-27T09:40:37Z</time>
      </trkpt>
      <trkpt lat="43.76388" lon="3.2793">
        <ele>640.51</ele>
        <time>2014-03-27T09:40:55Z</time>
      </trkpt>
      <trkpt lat="43.764" lon="3.2791">
        <ele>644.83</ele>
        <time>2014-03-27T09:41:09Z</time>
      </trkpt>
      <trkpt lat="43.76413" lon="3.27892">
        <ele>646.74</ele>
        <time>2014-03-27T09:41:25Z</time>
      </trkpt>
      <trkpt lat="43.76428" lon="3.27878">
        <ele>648.76</ele>
        <time>2014-03-27T09:41:46Z</time>
      </trkpt>
      <trkpt lat="43.76444" lon="3.27866">
        <ele>654.57</ele>
        <time>2014-03-27T09:42:25Z</time>
      </trkpt>
      <trkpt lat="43.76461" lon="3.27855">
        <ele>654.31</ele>
        <time>2014-03-27T09:42:40Z</time>
      </trkpt>
      <trkpt lat="43.76478" lon="3.27842">
        <ele>649.78</ele>
        <time>2014-03-27T09:42:58Z</time>
      </trkpt>
      <trkpt lat="43.76493" lon="3.27829">
        <ele>647.51</ele>
        <time>2014-03-27T09:43:17Z</time>
      </trkpt>
      <trkpt lat="43.76509" lon="3.27815">
        <ele>646.82</ele>
        <time>2014-03-27T09:43:33Z</time>
      </trkpt>
      <trkpt lat="43.76522" lon="3.27797">
        <ele>652.64</ele>
        <time>2014-03-27T09:43:47Z</time>
      </trkpt>
      <trkpt lat="43.7653" lon="3.27774">
        <ele>650.43</ele>
        <time>2014-03-27T09:44:20Z</time>
      </trkpt>
      <trkpt lat="43.76543" lon="3.27756">
        <ele>648.1</ele>
        <time>2014-03-27T09:44:39Z</time>
      </trkpt>
      <trkpt lat="43.76553" lon="3.27734">
        <ele>649.81</ele>
        <time>2014-03-27T09:44:52Z</time>
      </trkpt>
      <trkpt lat="43.7656" lon="3.27711">
        <ele>649.94</ele>
        <time>2014-03-27T09:45:06Z</time>
      </trkpt>
      <trkpt lat="43.76573" lon="3.27691">
        <ele>652.03</ele>
        <time>2014-03-27T09:45:21Z</time>
      </trkpt>
      <trkpt lat="43.76582" lon="3.27669">
        <ele>654.92</ele>
        <time>2014-03-27T09:45:39Z</time>
      </trkpt>
      <trkpt lat="43.76595" lon="3.2765">
        <ele>656.67</ele>
        <time>2014-03-27T09:45:59Z</time>
      </trkpt>
      <trkpt lat="43.76609" lon="3.27632">
        <ele>657.01</ele>
        <time>2014-03-27T09:46:19Z</time>
      </trkpt>
      <trkpt lat="43.76623" lon="3.27616">
        <ele>656.34</ele>
        <time>2014-03-27T09:46:39Z</time>
      </trkpt>
      <trkpt lat="43.76636" lon="3.27599">
        <ele>656.44</ele>
        <time>2014-03-27T09:46:55Z</time>
      </trkpt>
      <trkpt lat="43.7665" lon="3.27582">
        <ele>655.57</ele>
        <time>2014-03-27T09:47:12Z</time>
      </trkpt>
      <trkpt lat="43.76663" lon="3.27563">
        <ele>658.29</ele>
        <time>2014-03-27T09:47:38Z</time>
      </trkpt>
      <trkpt lat="43.76675" lon="3.27545">
        <ele>664.1</ele>
        <time>2014-03-27T09:47:58Z</time>
      </trkpt>
      <trkpt lat="43.76693" lon="3.27551">
        <ele>660.25</ele>
        <time>2014-03-27T09:48:19Z</time>
      </trkpt>
      <trkpt lat="43.76711" lon="3.27552">
        <ele>661.92</ele>
        <time>2014-03-27T09:48:44Z</time>
      </trkpt>
      <trkpt lat="43.76725" lon="3.27534">
        <ele>655.8</ele>
        <time>2014-03-27T09:49:11Z</time>
      </trkpt>
      <trkpt lat="43.7673" lon="3.2751">
        <ele>659.49</ele>
        <time>2014-03-27T09:49:29Z</time>
      </trkpt>
      <trkpt lat="43.76739" lon="3.27489">
        <ele>664.16</ele>
        <time>2014-03-27T09:49:52Z</time>
      </trkpt>
      <trkpt lat="43.76751" lon="3.27469">
        <ele>669.29</ele>
        <time>2014-03-27T09:50:12Z</time>
      </trkpt>
      <trkpt lat="43.76768" lon="3.27458">
        <ele>673.37</ele>
        <time>2014-03-27T09:50:32Z</time>
      </trkpt>
      <trkpt lat="43.76784" lon="3.27446">
        <ele>668.27</ele>
        <time>2014-03-27T09:50:52Z</time>
      </trkpt>
      <trkpt lat="43.76799" lon="3.27432">
        <ele>663.51</ele>
        <time>2014-03-27T09:51:12Z</time>
      </trkpt>
      <trkpt lat="43.76816" lon="3.27423">
        <ele>668.33</ele>
        <time>2014-03-27T09:51:31Z</time>
      </trkpt>
      <trkpt lat="43.76834" lon="3.27416">
        <ele>668.27</ele>
        <time>2014-03-27T09:51:50Z</time>
      </trkpt>
      <trkpt lat="43.76853" lon="3.27415">
        <ele>667.42</ele>
        <time>2014-03-27T09:52:10Z</time>
      </trkpt>
      <trkpt lat="43.7687" lon="3.27407">
        <ele>674.38</ele>
        <time>2014-03-27T09:52:29Z</time>
      </trkpt>
      <trkpt lat="43.76886" lon="3.27393">
        <ele>674.76</ele>
        <time>2014-03-27T09:52:45Z</time>
      </trkpt>
      <trkpt lat="43.76899" lon="3.27375">
        <ele>674.69</ele>
        <time>2014-03-27T09:53:08Z</time>
      </trkpt>
      <trkpt lat="43.76902" lon="3.27349">
        <ele>667.02</ele>
        <time>2014-03-27T09:53:31Z</time>
      </trkpt>
      <trkpt lat="43.76904" lon="3.27324">
        <ele>670.55</ele>
        <time>2014-03-27T09:53:50Z</time>
      </trkpt>
      <trkpt lat="43.76908" lon="3.27299">
        <ele>670.01</ele>
        <time>2014-03-27T09:54:08Z</time>
      </trkpt>
      <trkpt lat="43.76913" lon="3.27274">
        <ele>669.13</ele>
        <time>2014-03-27T09:54:30Z</time>
      </trkpt>
      <trkpt lat="43.76912" lon="3.27249">
        <ele>673.85</ele>
        <time>2014-03-27T09:54:46Z</time>
      </trkpt>
      <trkpt lat="43.769" lon="3.27228">
        <ele>676.08</ele>
        <time>2014-03-27T09:55:01Z</time>
      </trkpt>
      <trkpt lat="43.76892" lon="3.27206">
        <ele>673.05</ele>
        <time>2014-03-27T09:55:22Z</time>
      </trkpt>
      <trkpt lat="43.76884" lon="3.27183">
        <ele>674.8</ele>
        <time>2014-03-27T09:55:41Z</time>
      </trkpt>
      <trkpt lat="43.76878" lon="3.2716">
        <ele>680.31</ele>
        <time>2014-03-27T09:55:54Z</time>
      </trkpt>
      <trkpt lat="43.76881" lon="3.27133">
        <ele>671.88</ele>
        <time>2014-03-27T09:56:10Z</time>
      </trkpt>
      <trkpt lat="43.76879" lon="3.27108">
        <ele>665.79</ele>
        <time>2014-03-27T09:56:27Z</time>
      </trkpt>
      <trkpt lat="43.76882" lon="3.27082">
        <ele>668.4</ele>
        <time>2014-03-27T09:56:44Z</time>
      </trkpt>
      <trkpt lat="43.76889" lon="3.27059">
        <ele>669.68</ele>
        <time>2014-03-27T09:56:57Z</time>
      </trkpt>
      <trkpt lat="43.7689" lon="3.27034">
        <ele>667.57</ele>
        <time>2014-03-27T09:57:09Z</time>
      </trkpt>
      <trkpt lat="43.76896" lon="3.2701">
        <ele>666.63</ele>
        <time>2014-03-27T09:57:23Z</time>
      </trkpt>
      <trkpt lat="43.76903" lon="3.26987">
        <ele>667.71</ele>
        <time>2014-03-27T09:57:35Z</time>
      </trkpt>
      <trkpt lat="43.76907" lon="3.26961">
        <ele>664.9</ele>
        <time>2014-03-27T09:57:54Z</time>
      </trkpt>
      <trkpt lat="43.76911" lon="3.26935">
        <ele>665.53</ele>
        <time>2014-03-27T09:58:10Z</time>
      </trkpt>
      <trkpt lat="43.7692" lon="3.26914">
        <ele>668.25</ele>
        <time>2014-03-27T09:58:25Z</time>
      </trkpt>
      <trkpt lat="43.76921" lon="3.26889">
        <ele>669.33</ele>
        <time>2014-03-27T09:58:41Z</time>
      </trkpt>
      <trkpt lat="43.76929" lon="3.26866">
        <ele>668.14</ele>
        <time>2014-03-27T10:00:26Z</time>
      </trkpt>
      <trkpt lat="43.76945" lon="3.26853">
        <ele>666.97</ele>
        <time>2014-03-27T10:00:43Z</time>
      </trkpt>
      <trkpt lat="43.76945" lon="3.26828">
        <ele>662.89</ele>
        <time>2014-03-27T10:01:03Z</time>
      </trkpt>
      <trkpt lat="43.76959" lon="3.26811">
        <ele>664.59</ele>
        <time>2014-03-27T10:01:23Z</time>
      </trkpt>
      <trkpt lat="43.76967" lon="3.26787">
        <ele>657.43</ele>
        <time>2014-03-27T10:01:43Z</time>
      </trkpt>
      <trkpt lat="43.76978" lon="3.26765">
        <ele>656.62</ele>
        <time>2014-03-27T10:02:03Z</time>
      </trkpt>
      <trkpt lat="43.7699" lon="3.26745">
        <ele>655.63</ele>
        <time>2014-03-27T10:02:24Z</time>
      </trkpt>
      <trkpt lat="43.76998" lon="3.26722">
        <ele>665.89</ele>
        <time>2014-03-27T10:02:39Z</time>
      </trkpt>
      <trkpt lat="43.77013" lon="3.26704">
        <ele>664.07</ele>
        <time>2014-03-27T10:02:57Z</time>
      </trkpt>
      <trkpt lat="43.77023" lon="3.26684">
        <ele>660.4</ele>
        <time>2014-03-27T10:03:13Z</time>
      </trkpt>
      <trkpt lat="43.77038" lon="3.26668">
        <ele>659.16</ele>
        <time>2014-03-27T10:03:32Z</time>
      </trkpt>
      <trkpt lat="43.77054" lon="3.26655">
        <ele>656.45</ele>
        <time>2014-03-27T10:03:50Z</time>
      </trkpt>
      <trkpt lat="43.77071" lon="3.26644">
        <ele>654.86</ele>
        <time>2014-03-27T10:04:06Z</time>
      </trkpt>
      <trkpt lat="43.77088" lon="3.26633">
        <ele>649.72</ele>
        <time>2014-03-27T10:04:25Z</time>
      </trkpt>
      <trkpt lat="43.77104" lon="3.2662">
        <ele>645.67</ele>
        <time>2014-03-27T10:04:45Z</time>
      </trkpt>
      <trkpt lat="43.77122" lon="3.26612">
        <ele>644.18</ele>
        <time>2014-03-27T10:05:01Z</time>
      </trkpt>
      <trkpt lat="43.7714" lon="3.26614">
        <ele>642.49</ele>
        <time>2014-03-27T10:05:20Z</time>
      </trkpt>
      <trkpt lat="43.77159" lon="3.26614">
        <ele>636.47</ele>
        <time>2014-03-27T10:05:38Z</time>
      </trkpt>
      <trkpt lat="43.77177" lon="3.26623">
        <ele>638.83</ele>
        <time>2014-03-27T10:05:53Z</time>
      </trkpt>
      <trkpt lat="43.77193" lon="3.26633">
        <ele>641.74</ele>
        <time>2014-03-27T10:06:11Z</time>
      </trkpt>
      <trkpt lat="43.77211" lon="3.26641">
        <ele>638.62</ele>
        <time>2014-03-27T10:07:10Z</time>
      </trkpt>
      <trkpt lat="43.77227" lon="3.26654">
        <ele>639.58</ele>
        <time>2014-03-27T10:07:22Z</time>
      </trkpt>
      <trkpt lat="43.77244" lon="3.26665">
        <ele>637.62</ele>
        <time>2014-03-27T10:07:35Z</time>
      </trkpt>
      <trkpt lat="43.77261" lon="3.26674">
        <ele>636.7</ele>
        <time>2014-03-27T10:07:52Z</time>
      </trkpt>
      <trkpt lat="43.77279" lon="3.26681">
        <ele>637.56</ele>
        <time>2014-03-27T10:08:12Z</time>
      </trkpt>
      <trkpt lat="43.77297" lon="3.26682">
        <ele>636</ele>
        <time>2014-03-27T10:08:30Z</time>
      </trkpt>
      <trkpt lat="43.77316" lon="3.26682">
        <ele>636.82</ele>
        <time>2014-03-27T10:08:58Z</time>
      </trkpt>
      <trkpt lat="43.77335" lon="3.26678">
        <ele>636.16</ele>
        <time>2014-03-27T10:09:12Z</time>
      </trkpt>
      <trkpt lat="43.7735" lon="3.26663">
        <ele>638.6</ele>
        <time>2014-03-27T10:09:28Z</time>
      </trkpt>
      <trkpt lat="43.77362" lon="3.26644">
        <ele>631.55</ele>
        <time>2014-03-27T10:09:46Z</time>
      </trkpt>
      <trkpt lat="43.77373" lon="3.26623">
        <ele>626.25</ele>
        <time>2014-03-27T10:10:04Z</time>
      </trkpt>
      <trkpt lat="43.7738" lon="3.26599">
        <ele>627.53</ele>
        <time>2014-03-27T10:10:18Z</time>
      </trkpt>
      <trkpt lat="43.7739" lon="3.26576">
        <ele>632.22</ele>
        <time>2014-03-27T10:10:35Z</time>
      </trkpt>
      <trkpt lat="43.77398" lon="3.26553">
        <ele>624.11</ele>
        <time>2014-03-27T10:10:51Z</time>
      </trkpt>
      <trkpt lat="43.77399" lon="3.26528">
        <ele>620.24</ele>
        <time>2014-03-27T10:11:19Z</time>
      </trkpt>
      <trkpt lat="43.77404" lon="3.26503">
        <ele>614.62</ele>
        <time>2014-03-27T10:11:31Z</time>
      </trkpt>
      <trkpt lat="43.77405" lon="3.26477">
        <ele>611.24</ele>
        <time>2014-03-27T10:11:45Z</time>
      </trkpt>
      <trkpt lat="43.77403" lon="3.2645">
        <ele>614.74</ele>
        <time>2014-03-27T10:12:03Z</time>
      </trkpt>
      <trkpt lat="43.77404" lon="3.26425">
        <ele>619.83</ele>
        <time>2014-03-27T10:12:17Z</time>
      </trkpt>
      <trkpt lat="43.77408" lon="3.26399">
        <ele>618.41</ele>
        <time>2014-03-27T10:12:31Z</time>
      </trkpt>
      <trkpt lat="43.77416" lon="3.26376">
        <ele>617.36</ele>
        <time>2014-03-27T10:12:48Z</time>
      </trkpt>
      <trkpt lat="43.77423" lon="3.26353">
        <ele>617.11</ele>
        <time>2014-03-27T10:13:06Z</time>
      </trkpt>
      <trkpt lat="43.77436" lon="3.26335">
        <ele>612.24</ele>
        <time>2014-03-27T10:13:24Z</time>
      </trkpt>
      <trkpt lat="43.77445" lon="3.26312">
        <ele>605.77</ele>
        <time>2014-03-27T10:13:43Z</time>
      </trkpt>
      <trkpt lat="43.77461" lon="3.26299">
        <ele>605.77</ele>
        <time>2014-03-27T10:14:01Z</time>
      </trkpt>
      <trkpt lat="43.77477" lon="3.26287">
        <ele>604.62</ele>
        <time>2014-03-27T10:14:19Z</time>
      </trkpt>
      <trkpt lat="43.77494" lon="3.26276">
        <ele>608.37</ele>
        <time>2014-03-27T10:14:39Z</time>
      </trkpt>
      <trkpt lat="43.77511" lon="3.26264">
        <ele>608.5</ele>
        <time>2014-03-27T10:14:54Z</time>
      </trkpt>
      <trkpt lat="43.77527" lon="3.26254">
        <ele>606.17</ele>
        <time>2014-03-27T10:15:13Z</time>
      </trkpt>
      <trkpt lat="43.77545" lon="3.26244">
        <ele>604.96</ele>
        <time>2014-03-27T10:15:31Z</time>
      </trkpt>
      <trkpt lat="43.77563" lon="3.26236">
        <ele>599.59</ele>
        <time>2014-03-27T10:15:49Z</time>
      </trkpt>
      <trkpt lat="43.77581" lon="3.26237">
        <ele>601.77</ele>
        <time>2014-03-27T10:16:04Z</time>
      </trkpt>
      <trkpt lat="43.77599" lon="3.26232">
        <ele>603.52</ele>
        <time>2014-03-27T10:16:19Z</time>
      </trkpt>
      <trkpt lat="43.77616" lon="3.26224">
        <ele>604.98</ele>
        <time>2014-03-27T10:16:35Z</time>
      </trkpt>
      <trkpt lat="43.7763" lon="3.26207">
        <ele>599.06</ele>
        <time>2014-03-27T10:16:53Z</time>
      </trkpt>
      <trkpt lat="43.77643" lon="3.26188">
        <ele>600.31</ele>
        <time>2014-03-27T10:17:13Z</time>
      </trkpt>
      <trkpt lat="43.7766" lon="3.26179">
        <ele>599.58</ele>
        <time>2014-03-27T10:17:28Z</time>
      </trkpt>
      <trkpt lat="43.77671" lon="3.26158">
        <ele>597.27</ele>
        <time>2014-03-27T10:17:46Z</time>
      </trkpt>
      <trkpt lat="43.77688" lon="3.26145">
        <ele>597.19</ele>
        <time>2014-03-27T10:18:03Z</time>
      </trkpt>
      <trkpt lat="43.77705" lon="3.26135">
        <ele>592.73</ele>
        <time>2014-03-27T10:18:21Z</time>
      </trkpt>
      <trkpt lat="43.77723" lon="3.26128">
        <ele>592.16</ele>
        <time>2014-03-27T10:18:39Z</time>
      </trkpt>
      <trkpt lat="43.77741" lon="3.26119">
        <ele>591.67</ele>
        <time>2014-03-27T10:18:55Z</time>
      </trkpt>
      <trkpt lat="43.77754" lon="3.26102">
        <ele>590.6</ele>
        <time>2014-03-27T10:19:09Z</time>
      </trkpt>
      <trkpt lat="43.77762" lon="3.26078">
        <ele>582.57</ele>
        <time>2014-03-27T10:19:27Z</time>
      </trkpt>
      <trkpt lat="43.77771" lon="3.26056">
        <ele>582.67</ele>
        <time>2014-03-27T10:19:43Z</time>
      </trkpt>
      <trkpt lat="43.77783" lon="3.26036">
        <ele>584.84</ele>
        <time>2014-03-27T10:20:00Z</time>
      </trkpt>
      <trkpt lat="43.77794" lon="3.26016">
        <ele>583.56</ele>
        <time>2014-03-27T10:20:16Z</time>
      </trkpt>
      <trkpt lat="43.77804" lon="3.25992">
        <ele>585.6</ele>
        <time>2014-03-27T10:20:33Z</time>
      </trkpt>
      <trkpt lat="43.77817" lon="3.25974">
        <ele>583.89</ele>
        <time>2014-03-27T10:20:48Z</time>
      </trkpt>
      <trkpt lat="43.77831" lon="3.25957">
        <ele>581.71</ele>
        <time>2014-03-27T10:21:05Z</time>
      </trkpt>
      <trkpt lat="43.77845" lon="3.2594">
        <ele>576.95</ele>
        <time>2014-03-27T10:21:21Z</time>
      </trkpt>
      <trkpt lat="43.7786" lon="3.25924">
        <ele>579.4</ele>
        <time>2014-03-27T10:21:39Z</time>
      </trkpt>
      <trkpt lat="43.77875" lon="3.2591">
        <ele>577.12</ele>
        <time>2014-03-27T10:21:55Z</time>
      </trkpt>
      <trkpt lat="43.77891" lon="3.25895">
        <ele>575.38</ele>
        <time>2014-03-27T10:22:11Z</time>
      </trkpt>
      <trkpt lat="43.779" lon="3.25874">
        <ele>573.23</ele>
        <time>2014-03-27T10:22:25Z</time>
      </trkpt>
      <trkpt lat="43.77907" lon="3.25849">
        <ele>569.19</ele>
        <time>2014-03-27T10:22:40Z</time>
      </trkpt>
      <trkpt lat="43.77915" lon="3.25825">
        <ele>572.68</ele>
        <time>2014-03-27T10:22:58Z</time>
      </trkpt>
      <trkpt lat="43.77923" lon="3.25803">
        <ele>571.41</ele>
        <time>2014-03-27T10:23:13Z</time>
      </trkpt>
      <trkpt lat="43.7794" lon="3.2579">
        <ele>574.03</ele>
        <time>2014-03-27T10:23:30Z</time>
      </trkpt>
      <trkpt lat="43.77955" lon="3.25803">
        <ele>562.91</ele>
        <time>2014-03-27T10:23:52Z</time>
      </trkpt>
      <trkpt lat="43.77971" lon="3.25817">
        <ele>564.67</ele>
        <time>2014-03-27T10:24:09Z</time>
      </trkpt>
      <trkpt lat="43.77988" lon="3.25809">
        <ele>558.47</ele>
        <time>2014-03-27T10:24:23Z</time>
      </trkpt>
      <trkpt lat="43.78004" lon="3.25795">
        <ele>562.46</ele>
        <time>2014-03-27T10:24:43Z</time>
      </trkpt>
      <trkpt lat="43.78023" lon="3.25796">
        <ele>565.06</ele>
        <time>2014-03-27T10:25:02Z</time>
      </trkpt>
      <trkpt lat="43.78038" lon="3.25782">
        <ele>567.49</ele>
        <time>2014-03-27T10:25:17Z</time>
      </trkpt>
      <trkpt lat="43.78051" lon="3.25765">
        <ele>571.1</ele>
        <time>2014-03-27T10:25:35Z</time>
      </trkpt>
      <trkpt lat="43.78069" lon="3.25755">
        <ele>571.01</ele>
        <time>2014-03-27T10:26:40Z</time>
      </trkpt>
      <trkpt lat="43.78087" lon="3.25747">
        <ele>565.58</ele>
        <time>2014-03-27T10:26:55Z</time>
      </trkpt>
      <trkpt lat="43.78102" lon="3.25734">
        <ele>562.69</ele>
        <time>2014-03-27T10:27:09Z</time>
      </trkpt>
      <trkpt lat="43.78121" lon="3.25734">
        <ele>559.49</ele>
        <time>2014-03-27T10:27:25Z</time>
      </trkpt>
      <trkpt lat="43.78128" lon="3.25757">
        <ele>555.78</ele>
        <time>2014-03-27T10:27:43Z</time>
      </trkpt>
      <trkpt lat="43.78135" lon="3.2578">
        <ele>553.93</ele>
        <time>2014-03-27T10:27:59Z</time>
      </trkpt>
      <trkpt lat="43.7814" lon="3.25806">
        <ele>558.06</ele>
        <time>2014-03-27T10:28:20Z</time>
      </trkpt>
      <trkpt lat="43.78136" lon="3.25832">
        <ele>557.79</ele>
        <time>2014-03-27T10:28:37Z</time>
      </trkpt>
      <trkpt lat="43.78138" lon="3.25856">
        <ele>561.31</ele>
        <time>2014-03-27T10:28:50Z</time>
      </trkpt>
      <trkpt lat="43.78153" lon="3.25871">
        <ele>566.02</ele>
        <time>2014-03-27T10:29:05Z</time>
      </trkpt>
      <trkpt lat="43.78152" lon="3.25896">
        <ele>552.46</ele>
        <time>2014-03-27T10:29:25Z</time>
      </trkpt>
      <trkpt lat="43.78147" lon="3.25921">
        <ele>548.7</ele>
        <time>2014-03-27T10:29:47Z</time>
      </trkpt>
      <trkpt lat="43.7814" lon="3.25945">
        <ele>553.88</ele>
        <time>2014-03-27T10:30:13Z</time>
      </trkpt>
      <trkpt lat="43.78139" lon="3.2597">
        <ele>554.13</ele>
        <time>2014-03-27T10:30:28Z</time>
      </trkpt>
      <trkpt lat="43.78154" lon="3.25985">
        <ele>555.38</ele>
        <time>2014-03-27T10:30:43Z</time>
      </trkpt>
      <trkpt lat="43.78166" lon="3.26006">
        <ele>553.32</ele>
        <time>2014-03-27T10:31:27Z</time>
      </trkpt>
      <trkpt lat="43.78148" lon="3.26">
        <ele>562.03</ele>
        <time>2014-03-27T10:38:28Z</time>
      </trkpt>
      <trkpt lat="43.78136" lon="3.25979">
        <ele>560.46</ele>
        <time>2014-03-27T10:38:42Z</time>
      </trkpt>
      <trkpt lat="43.78153" lon="3.25991">
        <ele>568.2</ele>
        <time>2014-03-27T10:39:52Z</time>
      </trkpt>
      <trkpt lat="43.7817" lon="3.25981">
        <ele>561.32</ele>
        <time>2014-03-27T10:41:31Z</time>
      </trkpt>
      <trkpt lat="43.78165" lon="3.26006">
        <ele>563.5</ele>
        <time>2014-03-27T10:42:31Z</time>
      </trkpt>
      <trkpt lat="43.78152" lon="3.25988">
        <ele>554.9</ele>
        <time>2014-03-27T11:41:34Z</time>
      </trkpt>
      <trkpt lat="43.78144" lon="3.25964">
        <ele>554.39</ele>
        <time>2014-03-27T11:41:46Z</time>
      </trkpt>
      <trkpt lat="43.78139" lon="3.25939">
        <ele>546.97</ele>
        <time>2014-03-27T11:42:02Z</time>
      </trkpt>
      <trkpt lat="43.78143" lon="3.25915">
        <ele>543.96</ele>
        <time>2014-03-27T11:42:16Z</time>
      </trkpt>
      <trkpt lat="43.78145" lon="3.2589">
        <ele>545.31</ele>
        <time>2014-03-27T11:42:33Z</time>
      </trkpt>
      <trkpt lat="43.78141" lon="3.25865">
        <ele>552.37</ele>
        <time>2014-03-27T11:42:52Z</time>
      </trkpt>
      <trkpt lat="43.7813" lon="3.25839">
        <ele>558.12</ele>
        <time>2014-03-27T11:43:07Z</time>
      </trkpt>
      <trkpt lat="43.78128" lon="3.25814">
        <ele>561.66</ele>
        <time>2014-03-27T11:43:18Z</time>
      </trkpt>
      <trkpt lat="43.78125" lon="3.25789">
        <ele>565.25</ele>
        <time>2014-03-27T11:43:32Z</time>
      </trkpt>
      <trkpt lat="43.78117" lon="3.25765">
        <ele>567.59</ele>
        <time>2014-03-27T11:43:48Z</time>
      </trkpt>
      <trkpt lat="43.78112" lon="3.2574">
        <ele>559.94</ele>
        <time>2014-03-27T11:44:18Z</time>
      </trkpt>
      <trkpt lat="43.78094" lon="3.25748">
        <ele>555.88</ele>
        <time>2014-03-27T11:44:33Z</time>
      </trkpt>
      <trkpt lat="43.78077" lon="3.25759">
        <ele>557.66</ele>
        <time>2014-03-27T11:44:46Z</time>
      </trkpt>
      <trkpt lat="43.78061" lon="3.25771">
        <ele>559.15</ele>
        <time>2014-03-27T11:45:05Z</time>
      </trkpt>
      <trkpt lat="43.78049" lon="3.25791">
        <ele>560.63</ele>
        <time>2014-03-27T11:45:21Z</time>
      </trkpt>
      <trkpt lat="43.78036" lon="3.2581">
        <ele>557.26</ele>
        <time>2014-03-27T11:45:40Z</time>
      </trkpt>
      <trkpt lat="43.78018" lon="3.25816">
        <ele>547.78</ele>
        <time>2014-03-27T11:45:58Z</time>
      </trkpt>
      <trkpt lat="43.78002" lon="3.2583">
        <ele>549.95</ele>
        <time>2014-03-27T11:46:15Z</time>
      </trkpt>
      <trkpt lat="43.77989" lon="3.25848">
        <ele>551.83</ele>
        <time>2014-03-27T11:46:25Z</time>
      </trkpt>
      <trkpt lat="43.77971" lon="3.25843">
        <ele>552.03</ele>
        <time>2014-03-27T11:46:39Z</time>
      </trkpt>
      <trkpt lat="43.77953" lon="3.25841">
        <ele>545.28</ele>
        <time>2014-03-27T11:46:53Z</time>
      </trkpt>
      <trkpt lat="43.77935" lon="3.25852">
        <ele>542.13</ele>
        <time>2014-03-27T11:47:17Z</time>
      </trkpt>
      <trkpt lat="43.77933" lon="3.25877">
        <ele>548.68</ele>
        <time>2014-03-27T11:47:27Z</time>
      </trkpt>
      <trkpt lat="43.77934" lon="3.25902">
        <ele>550.33</ele>
        <time>2014-03-27T11:47:45Z</time>
      </trkpt>
      <trkpt lat="43.77926" lon="3.25926">
        <ele>544.31</ele>
        <time>2014-03-27T11:47:59Z</time>
      </trkpt>
      <trkpt lat="43.77911" lon="3.2594">
        <ele>534.78</ele>
        <time>2014-03-27T11:48:29Z</time>
      </trkpt>
      <trkpt lat="43.77898" lon="3.2596">
        <ele>532.74</ele>
        <time>2014-03-27T11:48:47Z</time>
      </trkpt>
      <trkpt lat="43.77886" lon="3.2598">
        <ele>532.5</ele>
        <time>2014-03-27T11:49:03Z</time>
      </trkpt>
      <trkpt lat="43.77875" lon="3.26">
        <ele>531.76</ele>
        <time>2014-03-27T11:49:18Z</time>
      </trkpt>
      <trkpt lat="43.77871" lon="3.26025">
        <ele>528.73</ele>
        <time>2014-03-27T11:49:31Z</time>
      </trkpt>
      <trkpt lat="43.77856" lon="3.2604">
        <ele>527.52</ele>
        <time>2014-03-27T11:49:50Z</time>
      </trkpt>
      <trkpt lat="43.77846" lon="3.26061">
        <ele>525.34</ele>
        <time>2014-03-27T11:50:07Z</time>
      </trkpt>
      <trkpt lat="43.77838" lon="3.26085">
        <ele>528.73</ele>
        <time>2014-03-27T11:50:20Z</time>
      </trkpt>
      <trkpt lat="43.77831" lon="3.26109">
        <ele>523.43</ele>
        <time>2014-03-27T11:50:39Z</time>
      </trkpt>
      <trkpt lat="43.77826" lon="3.26133">
        <ele>524.47</ele>
        <time>2014-03-27T11:50:57Z</time>
      </trkpt>
      <trkpt lat="43.77817" lon="3.26156">
        <ele>526.35</ele>
        <time>2014-03-27T11:51:14Z</time>
      </trkpt>
      <trkpt lat="43.77823" lon="3.26179">
        <ele>529.75</ele>
        <time>2014-03-27T11:51:34Z</time>
      </trkpt>
      <trkpt lat="43.77809" lon="3.26197">
        <ele>526.25</ele>
        <time>2014-03-27T11:51:53Z</time>
      </trkpt>
      <trkpt lat="43.77797" lon="3.26216">
        <ele>518.66</ele>
        <time>2014-03-27T11:52:11Z</time>
      </trkpt>
      <trkpt lat="43.77793" lon="3.26242">
        <ele>522.44</ele>
        <time>2014-03-27T11:52:29Z</time>
      </trkpt>
      <trkpt lat="43.77784" lon="3.26263">
        <ele>525.13</ele>
        <time>2014-03-27T11:52:43Z</time>
      </trkpt>
      <trkpt lat="43.77768" lon="3.26277">
        <ele>523.06</ele>
        <time>2014-03-27T11:52:59Z</time>
      </trkpt>
      <trkpt lat="43.7775" lon="3.26276">
        <ele>523.14</ele>
        <time>2014-03-27T11:53:27Z</time>
      </trkpt>
      <trkpt lat="43.77735" lon="3.26292">
        <ele>522.36</ele>
        <time>2014-03-27T11:53:45Z</time>
      </trkpt>
      <trkpt lat="43.77732" lon="3.26318">
        <ele>522.16</ele>
        <time>2014-03-27T11:53:52Z</time>
      </trkpt>
      <trkpt lat="43.77727" lon="3.26343">
        <ele>521.33</ele>
        <time>2014-03-27T11:53:58Z</time>
      </trkpt>
      <trkpt lat="43.77723" lon="3.26369">
        <ele>517.38</ele>
        <time>2014-03-27T11:54:16Z</time>
      </trkpt>
      <trkpt lat="43.77713" lon="3.2639">
        <ele>518.56</ele>
        <time>2014-03-27T11:54:31Z</time>
      </trkpt>
      <trkpt lat="43.77703" lon="3.26412">
        <ele>514.83</ele>
        <time>2014-03-27T11:54:49Z</time>
      </trkpt>
      <trkpt lat="43.77687" lon="3.26428">
        <ele>511.87</ele>
        <time>2014-03-27T11:55:05Z</time>
      </trkpt>
      <trkpt lat="43.7767" lon="3.26436">
        <ele>507.76</ele>
        <time>2014-03-27T11:55:19Z</time>
      </trkpt>
      <trkpt lat="43.7765" lon="3.26434">
        <ele>506.59</ele>
        <time>2014-03-27T11:55:36Z</time>
      </trkpt>
      <trkpt lat="43.77632" lon="3.26435">
        <ele>504.37</ele>
        <time>2014-03-27T11:55:48Z</time>
      </trkpt>
      <trkpt lat="43.77619" lon="3.26452">
        <ele>506.41</ele>
        <time>2014-03-27T11:56:12Z</time>
      </trkpt>
      <trkpt lat="43.7762" lon="3.2648">
        <ele>507.66</ele>
        <time>2014-03-27T11:58:55Z</time>
      </trkpt>
      <trkpt lat="43.77629" lon="3.26502">
        <ele>505.9</ele>
        <time>2014-03-27T11:59:02Z</time>
      </trkpt>
      <trkpt lat="43.77625" lon="3.26528">
        <ele>493</ele>
        <time>2014-03-27T11:59:10Z</time>
      </trkpt>
      <trkpt lat="43.77631" lon="3.26552">
        <ele>496.48</ele>
        <time>2014-03-27T11:59:21Z</time>
      </trkpt>
      <trkpt lat="43.77636" lon="3.26577">
        <ele>497.13</ele>
        <time>2014-03-27T11:59:31Z</time>
      </trkpt>
      <trkpt lat="43.77638" lon="3.26603">
        <ele>502.76</ele>
        <time>2014-03-27T11:59:42Z</time>
      </trkpt>
      <trkpt lat="43.77638" lon="3.26628">
        <ele>503.66</ele>
        <time>2014-03-27T11:59:57Z</time>
      </trkpt>
      <trkpt lat="43.7763" lon="3.2665">
        <ele>505.09</ele>
        <time>2014-03-27T12:00:13Z</time>
      </trkpt>
      <trkpt lat="43.77631" lon="3.26675">
        <ele>491.72</ele>
        <time>2014-03-27T12:00:46Z</time>
      </trkpt>
      <trkpt lat="43.77639" lon="3.26701">
        <ele>494.2</ele>
        <time>2014-03-27T12:01:19Z</time>
      </trkpt>
      <trkpt lat="43.77647" lon="3.26724">
        <ele>491.76</ele>
        <time>2014-03-27T12:01:25Z</time>
      </trkpt>
      <trkpt lat="43.7765" lon="3.26749">
        <ele>491.52</ele>
        <time>2014-03-27T12:01:34Z</time>
      </trkpt>
      <trkpt lat="43.77649" lon="3.26774">
        <ele>493.27</ele>
        <time>2014-03-27T12:01:46Z</time>
      </trkpt>
      <trkpt lat="43.77648" lon="3.268">
        <ele>490.86</ele>
        <time>2014-03-27T12:02:08Z</time>
      </trkpt>
      <trkpt lat="43.77642" lon="3.26826">
        <ele>491.62</ele>
        <time>2014-03-27T12:02:19Z</time>
      </trkpt>
      <trkpt lat="43.77639" lon="3.26851">
        <ele>496.22</ele>
        <time>2014-03-27T12:02:29Z</time>
      </trkpt>
      <trkpt lat="43.77633" lon="3.26876">
        <ele>489.6</ele>
        <time>2014-03-27T12:02:53Z</time>
      </trkpt>
      <trkpt lat="43.77629" lon="3.269">
        <ele>487.67</ele>
        <time>2014-03-27T12:03:11Z</time>
      </trkpt>
      <trkpt lat="43.77626" lon="3.26927">
        <ele>490.2</ele>
        <time>2014-03-27T12:03:23Z</time>
      </trkpt>
      <trkpt lat="43.77619" lon="3.26951">
        <ele>481.72</ele>
        <time>2014-03-27T12:03:41Z</time>
      </trkpt>
      <trkpt lat="43.7761" lon="3.26973">
        <ele>472.31</ele>
        <time>2014-03-27T12:04:05Z</time>
      </trkpt>
      <trkpt lat="43.77601" lon="3.26995">
        <ele>473.48</ele>
        <time>2014-03-27T12:04:18Z</time>
      </trkpt>
      <trkpt lat="43.77583" lon="3.26996">
        <ele>468.18</ele>
        <time>2014-03-27T12:04:35Z</time>
      </trkpt>
      <trkpt lat="43.77571" lon="3.27017">
        <ele>462.29</ele>
        <time>2014-03-27T12:05:01Z</time>
      </trkpt>
      <trkpt lat="43.77558" lon="3.27036">
        <ele>455.6</ele>
        <time>2014-03-27T12:05:15Z</time>
      </trkpt>
      <trkpt lat="43.77541" lon="3.27046">
        <ele>456.99</ele>
        <time>2014-03-27T12:05:30Z</time>
      </trkpt>
      <trkpt lat="43.77523" lon="3.27049">
        <ele>456.25</ele>
        <time>2014-03-27T12:05:39Z</time>
      </trkpt>
      <trkpt lat="43.77506" lon="3.27036">
        <ele>439.32</ele>
        <time>2014-03-27T12:05:58Z</time>
      </trkpt>
      <trkpt lat="43.77491" lon="3.27051">
        <ele>438.65</ele>
        <time>2014-03-27T12:06:16Z</time>
      </trkpt>
      <trkpt lat="43.77473" lon="3.27056">
        <ele>445.21</ele>
        <time>2014-03-27T12:06:28Z</time>
      </trkpt>
      <trkpt lat="43.77456" lon="3.27067">
        <ele>451.04</ele>
        <time>2014-03-27T12:06:36Z</time>
      </trkpt>
      <trkpt lat="43.77438" lon="3.2707">
        <ele>464.74</ele>
        <time>2014-03-27T12:06:57Z</time>
      </trkpt>
      <trkpt lat="43.77419" lon="3.27077">
        <ele>468.26</ele>
        <time>2014-03-27T12:07:11Z</time>
      </trkpt>
      <trkpt lat="43.77401" lon="3.27081">
        <ele>470.74</ele>
        <time>2014-03-27T12:07:21Z</time>
      </trkpt>
      <trkpt lat="43.77387" lon="3.27097">
        <ele>471.81</ele>
        <time>2014-03-27T12:07:34Z</time>
      </trkpt>
      <trkpt lat="43.77402" lon="3.27115">
        <ele>471.63</ele>
        <time>2014-03-27T12:08:11Z</time>
      </trkpt>
      <trkpt lat="43.77421" lon="3.27117">
        <ele>467.09</ele>
        <time>2014-03-27T12:08:20Z</time>
      </trkpt>
      <trkpt lat="43.77441" lon="3.27119">
        <ele>462.39</ele>
        <time>2014-03-27T12:08:26Z</time>
      </trkpt>
      <trkpt lat="43.77425" lon="3.27133">
        <ele>459.78</ele>
        <time>2014-03-27T12:08:29Z</time>
      </trkpt>
      <trkpt lat="43.7744" lon="3.27151">
        <ele>441.94</ele>
        <time>2014-03-27T12:08:55Z</time>
      </trkpt>
      <trkpt lat="43.77439" lon="3.27176">
        <ele>441.92</ele>
        <time>2014-03-27T12:09:01Z</time>
      </trkpt>
      <trkpt lat="43.77458" lon="3.27175">
        <ele>441.95</ele>
        <time>2014-03-27T12:09:15Z</time>
      </trkpt>
      <trkpt lat="43.77471" lon="3.27194">
        <ele>431.01</ele>
        <time>2014-03-27T12:09:41Z</time>
      </trkpt>
      <trkpt lat="43.77487" lon="3.27211">
        <ele>426.14</ele>
        <time>2014-03-27T12:09:58Z</time>
      </trkpt>
      <trkpt lat="43.77486" lon="3.27239">
        <ele>419.99</ele>
        <time>2014-03-27T12:10:07Z</time>
      </trkpt>
      <trkpt lat="43.7749" lon="3.27263">
        <ele>430.83</ele>
        <time>2014-03-27T12:10:31Z</time>
      </trkpt>
      <trkpt lat="43.77485" lon="3.27289">
        <ele>437.74</ele>
        <time>2014-03-27T12:10:44Z</time>
      </trkpt>
      <trkpt lat="43.77477" lon="3.27311">
        <ele>443.6</ele>
        <time>2014-03-27T12:11:01Z</time>
      </trkpt>
      <trkpt lat="43.77465" lon="3.2733">
        <ele>435.1</ele>
        <time>2014-03-27T12:11:22Z</time>
      </trkpt>
      <trkpt lat="43.77463" lon="3.27355">
        <ele>431.05</ele>
        <time>2014-03-27T12:11:43Z</time>
      </trkpt>
      <trkpt lat="43.77463" lon="3.27381">
        <ele>429.43</ele>
        <time>2014-03-27T12:11:50Z</time>
      </trkpt>
      <trkpt lat="43.77462" lon="3.27407">
        <ele>429.5</ele>
        <time>2014-03-27T12:12:04Z</time>
      </trkpt>
      <trkpt lat="43.77456" lon="3.27432">
        <ele>442.4</ele>
        <time>2014-03-27T12:12:24Z</time>
      </trkpt>
      <trkpt lat="43.77445" lon="3.27452">
        <ele>435.12</ele>
        <time>2014-03-27T12:12:42Z</time>
      </trkpt>
      <trkpt lat="43.77434" lon="3.27475">
        <ele>435.55</ele>
        <time>2014-03-27T12:12:56Z</time>
      </trkpt>
      <trkpt lat="43.77419" lon="3.27488">
        <ele>438.52</ele>
        <time>2014-03-27T12:13:07Z</time>
      </trkpt>
      <trkpt lat="43.77409" lon="3.2751">
        <ele>421.03</ele>
        <time>2014-03-27T12:13:31Z</time>
      </trkpt>
      <trkpt lat="43.77405" lon="3.27534">
        <ele>423.99</ele>
        <time>2014-03-27T12:13:45Z</time>
      </trkpt>
      <trkpt lat="43.77402" lon="3.2756">
        <ele>423.24</ele>
        <time>2014-03-27T12:14:02Z</time>
      </trkpt>
      <trkpt lat="43.77405" lon="3.27585">
        <ele>415.94</ele>
        <time>2014-03-27T12:14:24Z</time>
      </trkpt>
      <trkpt lat="43.77407" lon="3.27611">
        <ele>416.55</ele>
        <time>2014-03-27T12:14:39Z</time>
      </trkpt>
      <trkpt lat="43.77404" lon="3.27637">
        <ele>416.73</ele>
        <time>2014-03-27T12:14:53Z</time>
      </trkpt>
      <trkpt lat="43.77402" lon="3.27664">
        <ele>423.04</ele>
        <time>2014-03-27T12:15:10Z</time>
      </trkpt>
      <trkpt lat="43.77401" lon="3.27688">
        <ele>425.61</ele>
        <time>2014-03-27T12:15:19Z</time>
      </trkpt>
      <trkpt lat="43.77396" lon="3.27713">
        <ele>423.83</ele>
        <time>2014-03-27T12:15:31Z</time>
      </trkpt>
      <trkpt lat="43.77381" lon="3.2773">
        <ele>422.6</ele>
        <time>2014-03-27T12:15:55Z</time>
      </trkpt>
      <trkpt lat="43.77369" lon="3.2775">
        <ele>414.21</ele>
        <time>2014-03-27T12:16:07Z</time>
      </trkpt>
      <trkpt lat="43.77352" lon="3.27759">
        <ele>405.63</ele>
        <time>2014-03-27T12:25:16Z</time>
      </trkpt>
      <trkpt lat="43.77333" lon="3.27765">
        <ele>415.12</ele>
        <time>2014-03-27T12:25:34Z</time>
      </trkpt>
      <trkpt lat="43.77321" lon="3.27786">
        <ele>417.88</ele>
        <time>2014-03-27T12:25:48Z</time>
      </trkpt>
      <trkpt lat="43.77305" lon="3.27796">
        <ele>420.9</ele>
        <time>2014-03-27T12:26:03Z</time>
      </trkpt>
      <trkpt lat="43.77293" lon="3.27816">
        <ele>414.55</ele>
        <time>2014-03-27T12:26:20Z</time>
      </trkpt>
      <trkpt lat="43.77284" lon="3.2784">
        <ele>403.99</ele>
        <time>2014-03-27T12:26:35Z</time>
      </trkpt>
      <trkpt lat="43.77268" lon="3.2785">
        <ele>406.21</ele>
        <time>2014-03-27T12:26:48Z</time>
      </trkpt>
      <trkpt lat="43.77252" lon="3.27863">
        <ele>407.26</ele>
        <time>2014-03-27T12:27:03Z</time>
      </trkpt>
      <trkpt lat="43.7724" lon="3.27883">
        <ele>408.04</ele>
        <time>2014-03-27T12:27:17Z</time>
      </trkpt>
      <trkpt lat="43.77238" lon="3.27909">
        <ele>408.69</ele>
        <time>2014-03-27T12:27:31Z</time>
      </trkpt>
      <trkpt lat="43.77239" lon="3.27935">
        <ele>403.42</ele>
        <time>2014-03-27T12:27:46Z</time>
      </trkpt>
      <trkpt lat="43.77247" lon="3.27959">
        <ele>405.28</ele>
        <time>2014-03-27T12:27:57Z</time>
      </trkpt>
      <trkpt lat="43.7724" lon="3.27983">
        <ele>400.45</ele>
        <time>2014-03-27T12:28:14Z</time>
      </trkpt>
      <trkpt lat="43.77235" lon="3.28007">
        <ele>400.54</ele>
        <time>2014-03-27T12:28:27Z</time>
      </trkpt>
      <trkpt lat="43.7723" lon="3.28033">
        <ele>401.44</ele>
        <time>2014-03-27T12:28:42Z</time>
      </trkpt>
      <trkpt lat="43.77229" lon="3.28057">
        <ele>399.41</ele>
        <time>2014-03-27T12:29:03Z</time>
      </trkpt>
      <trkpt lat="43.77224" lon="3.28082">
        <ele>400.38</ele>
        <time>2014-03-27T12:29:13Z</time>
      </trkpt>
      <trkpt lat="43.77225" lon="3.28108">
        <ele>399.57</ele>
        <time>2014-03-27T12:29:34Z</time>
      </trkpt>
      <trkpt lat="43.77224" lon="3.28135">
        <ele>394.57</ele>
        <time>2014-03-27T12:29:44Z</time>
      </trkpt>
      <trkpt lat="43.77235" lon="3.28156">
        <ele>397.32</ele>
        <time>2014-03-27T12:29:54Z</time>
      </trkpt>
      <trkpt lat="43.77249" lon="3.28173">
        <ele>399.4</ele>
        <time>2014-03-27T12:30:05Z</time>
      </trkpt>
      <trkpt lat="43.77253" lon="3.28198">
        <ele>396.23</ele>
        <time>2014-03-27T12:30:18Z</time>
      </trkpt>
      <trkpt lat="43.77257" lon="3.28224">
        <ele>401.62</ele>
        <time>2014-03-27T12:30:33Z</time>
      </trkpt>
      <trkpt lat="43.77248" lon="3.28246">
        <ele>397.99</ele>
        <time>2014-03-27T12:30:52Z</time>
      </trkpt>
      <trkpt lat="43.77239" lon="3.2827">
        <ele>395.82</ele>
        <time>2014-03-27T12:31:07Z</time>
      </trkpt>
      <trkpt lat="43.77226" lon="3.28288">
        <ele>398.78</ele>
        <time>2014-03-27T12:31:21Z</time>
      </trkpt>
      <trkpt lat="43.77208" lon="3.28294">
        <ele>398.58</ele>
        <time>2014-03-27T12:31:36Z</time>
      </trkpt>
      <trkpt lat="43.77192" lon="3.28305">
        <ele>399.53</ele>
        <time>2014-03-27T12:31:49Z</time>
      </trkpt>
      <trkpt lat="43.77183" lon="3.28327">
        <ele>399.62</ele>
        <time>2014-03-27T12:32:04Z</time>
      </trkpt>
      <trkpt lat="43.77183" lon="3.28354">
        <ele>394.33</ele>
        <time>2014-03-27T12:32:20Z</time>
      </trkpt>
      <trkpt lat="43.77188" lon="3.28378">
        <ele>397.36</ele>
        <time>2014-03-27T12:32:35Z</time>
      </trkpt>
      <trkpt lat="43.77191" lon="3.28404">
        <ele>396.13</ele>
        <time>2014-03-27T12:32:52Z</time>
      </trkpt>
      <trkpt lat="43.77198" lon="3.28428">
        <ele>399.56</ele>
        <time>2014-03-27T12:33:07Z</time>
      </trkpt>
      <trkpt lat="43.77203" lon="3.28453">
        <ele>401.44</ele>
        <time>2014-03-27T12:33:22Z</time>
      </trkpt>
      <trkpt lat="43.77207" lon="3.28478">
        <ele>401.63</ele>
        <time>2014-03-27T12:33:37Z</time>
      </trkpt>
      <trkpt lat="43.77205" lon="3.28503">
        <ele>403.19</ele>
        <time>2014-03-27T12:33:55Z</time>
      </trkpt>
      <trkpt lat="43.77201" lon="3.28527">
        <ele>402.18</ele>
        <time>2014-03-27T12:34:50Z</time>
      </trkpt>
      <trkpt lat="43.77194" lon="3.28551">
        <ele>405</ele>
        <time>2014-03-27T12:35:15Z</time>
      </trkpt>
      <trkpt lat="43.77194" lon="3.28577">
        <ele>403.45</ele>
        <time>2014-03-27T12:35:31Z</time>
      </trkpt>
      <trkpt lat="43.77195" lon="3.28602">
        <ele>404.75</ele>
        <time>2014-03-27T12:35:48Z</time>
      </trkpt>
      <trkpt lat="43.77195" lon="3.28627">
        <ele>405.61</ele>
        <time>2014-03-27T12:36:05Z</time>
      </trkpt>
      <trkpt lat="43.77182" lon="3.28645">
        <ele>411.97</ele>
        <time>2014-03-27T12:36:22Z</time>
      </trkpt>
      <trkpt lat="43.77167" lon="3.2866">
        <ele>413.06</ele>
        <time>2014-03-27T12:36:38Z</time>
      </trkpt>
      <trkpt lat="43.77154" lon="3.28677">
        <ele>409.71</ele>
        <time>2014-03-27T12:36:53Z</time>
      </trkpt>
      <trkpt lat="43.77143" lon="3.28697">
        <ele>412.53</ele>
        <time>2014-03-27T12:37:09Z</time>
      </trkpt>
      <trkpt lat="43.77141" lon="3.28723">
        <ele>414.08</ele>
        <time>2014-03-27T12:37:25Z</time>
      </trkpt>
      <trkpt lat="43.77141" lon="3.28749">
        <ele>414.38</ele>
        <time>2014-03-27T12:37:42Z</time>
      </trkpt>
      <trkpt lat="43.77143" lon="3.28775">
        <ele>415.21</ele>
        <time>2014-03-27T12:37:56Z</time>
      </trkpt>
      <trkpt lat="43.77155" lon="3.28795">
        <ele>415.68</ele>
        <time>2014-03-27T12:38:13Z</time>
      </trkpt>
      <trkpt lat="43.77172" lon="3.28806">
        <ele>411.75</ele>
        <time>2014-03-27T12:38:29Z</time>
      </trkpt>
      <trkpt lat="43.77187" lon="3.28819">
        <ele>413.95</ele>
        <time>2014-03-27T12:38:49Z</time>
      </trkpt>
      <trkpt lat="43.77203" lon="3.28832">
        <ele>415.56</ele>
        <time>2014-03-27T12:39:02Z</time>
      </trkpt>
      <trkpt lat="43.77202" lon="3.28857">
        <ele>424.88</ele>
        <time>2014-03-27T12:39:22Z</time>
      </trkpt>
      <trkpt lat="43.77186" lon="3.28869">
        <ele>428.9</ele>
        <time>2014-03-27T12:39:39Z</time>
      </trkpt>
      <trkpt lat="43.77167" lon="3.28866">
        <ele>433.15</ele>
        <time>2014-03-27T12:39:56Z</time>
      </trkpt>
      <trkpt lat="43.77149" lon="3.2887">
        <ele>427.67</ele>
        <time>2014-03-27T12:40:12Z</time>
      </trkpt>
      <trkpt lat="43.77134" lon="3.28887">
        <ele>431.45</ele>
        <time>2014-03-27T12:40:26Z</time>
      </trkpt>
      <trkpt lat="43.77119" lon="3.28902">
        <ele>427.22</ele>
        <time>2014-03-27T12:40:41Z</time>
      </trkpt>
      <trkpt lat="43.77105" lon="3.28918">
        <ele>430.52</ele>
        <time>2014-03-27T12:40:57Z</time>
      </trkpt>
      <trkpt lat="43.77086" lon="3.28925">
        <ele>434.3</ele>
        <time>2014-03-27T12:41:23Z</time>
      </trkpt>
      <trkpt lat="43.77068" lon="3.28931">
        <ele>435.27</ele>
        <time>2014-03-27T12:41:38Z</time>
      </trkpt>
      <trkpt lat="43.7705" lon="3.28939">
        <ele>436.85</ele>
        <time>2014-03-27T12:41:52Z</time>
      </trkpt>
      <trkpt lat="43.77034" lon="3.28952">
        <ele>439.41</ele>
        <time>2014-03-27T12:42:06Z</time>
      </trkpt>
      <trkpt lat="43.77017" lon="3.28959">
        <ele>439.05</ele>
        <time>2014-03-27T12:42:20Z</time>
      </trkpt>
      <trkpt lat="43.77" lon="3.28971">
        <ele>443.58</ele>
        <time>2014-03-27T12:42:35Z</time>
      </trkpt>
      <trkpt lat="43.76986" lon="3.28986">
        <ele>443.59</ele>
        <time>2014-03-27T12:42:50Z</time>
      </trkpt>
      <trkpt lat="43.76978" lon="3.29009">
        <ele>442.1</ele>
        <time>2014-03-27T12:43:06Z</time>
      </trkpt>
      <trkpt lat="43.76972" lon="3.29034">
        <ele>443.19</ele>
        <time>2014-03-27T12:43:27Z</time>
      </trkpt>
      <trkpt lat="43.76955" lon="3.29047">
        <ele>443.63</ele>
        <time>2014-03-27T12:43:44Z</time>
      </trkpt>
      <trkpt lat="43.7694" lon="3.29061">
        <ele>441.86</ele>
        <time>2014-03-27T12:44:00Z</time>
      </trkpt>
      <trkpt lat="43.76934" lon="3.29086">
        <ele>442.73</ele>
        <time>2014-03-27T12:44:14Z</time>
      </trkpt>
      <trkpt lat="43.76928" lon="3.2911">
        <ele>447.47</ele>
        <time>2014-03-27T12:44:29Z</time>
      </trkpt>
      <trkpt lat="43.76911" lon="3.291">
        <ele>460.41</ele>
        <time>2014-03-27T12:46:20Z</time>
      </trkpt>
      <trkpt lat="43.76905" lon="3.29076">
        <ele>458.79</ele>
        <time>2014-03-27T12:46:41Z</time>
      </trkpt>
      <trkpt lat="43.76907" lon="3.2905">
        <ele>457.71</ele>
        <time>2014-03-27T12:46:58Z</time>
      </trkpt>
      <trkpt lat="43.76917" lon="3.29029">
        <ele>464.46</ele>
        <time>2014-03-27T12:47:15Z</time>
      </trkpt>
      <trkpt lat="43.76919" lon="3.29003">
        <ele>466.19</ele>
        <time>2014-03-27T12:47:30Z</time>
      </trkpt>
      <trkpt lat="43.76918" lon="3.28978">
        <ele>469.09</ele>
        <time>2014-03-27T12:47:49Z</time>
      </trkpt>
      <trkpt lat="43.76903" lon="3.28961">
        <ele>469.8</ele>
        <time>2014-03-27T12:48:10Z</time>
      </trkpt>
      <trkpt lat="43.76885" lon="3.28952">
        <ele>474.99</ele>
        <time>2014-03-27T12:48:26Z</time>
      </trkpt>
      <trkpt lat="43.76867" lon="3.28951">
        <ele>465.85</ele>
        <time>2014-03-27T12:48:44Z</time>
      </trkpt>
      <trkpt lat="43.76853" lon="3.28969">
        <ele>471.81</ele>
        <time>2014-03-27T12:49:00Z</time>
      </trkpt>
      <trkpt lat="43.76837" lon="3.28983">
        <ele>478.09</ele>
        <time>2014-03-27T12:49:14Z</time>
      </trkpt>
      <trkpt lat="43.76819" lon="3.28989">
        <ele>477.89</ele>
        <time>2014-03-27T12:49:30Z</time>
      </trkpt>
      <trkpt lat="43.76801" lon="3.28997">
        <ele>475.11</ele>
        <time>2014-03-27T12:49:47Z</time>
      </trkpt>
      <trkpt lat="43.76784" lon="3.29007">
        <ele>476.1</ele>
        <time>2014-03-27T12:50:02Z</time>
      </trkpt>
      <trkpt lat="43.76768" lon="3.29022">
        <ele>477.44</ele>
        <time>2014-03-27T12:50:17Z</time>
      </trkpt>
      <trkpt lat="43.76751" lon="3.29033">
        <ele>478.99</ele>
        <time>2014-03-27T12:50:32Z</time>
      </trkpt>
      <trkpt lat="43.76733" lon="3.29033">
        <ele>482.63</ele>
        <time>2014-03-27T12:50:46Z</time>
      </trkpt>
      <trkpt lat="43.76714" lon="3.29033">
        <ele>485.13</ele>
        <time>2014-03-27T12:51:03Z</time>
      </trkpt>
      <trkpt lat="43.76695" lon="3.29036">
        <ele>479.32</ele>
        <time>2014-03-27T12:51:20Z</time>
      </trkpt>
      <trkpt lat="43.76677" lon="3.29039">
        <ele>483.33</ele>
        <time>2014-03-27T12:51:34Z</time>
      </trkpt>
      <trkpt lat="43.76659" lon="3.29045">
        <ele>487.1</ele>
        <time>2014-03-27T12:51:46Z</time>
      </trkpt>
      <trkpt lat="43.76641" lon="3.2905">
        <ele>483.38</ele>
        <time>2014-03-27T12:52:00Z</time>
      </trkpt>
      <trkpt lat="43.76624" lon="3.29055">
        <ele>484.95</ele>
        <time>2014-03-27T12:52:17Z</time>
      </trkpt>
      <trkpt lat="43.76609" lon="3.29071">
        <ele>488.5</ele>
        <time>2014-03-27T12:52:33Z</time>
      </trkpt>
      <trkpt lat="43.76593" lon="3.29082">
        <ele>495.45</ele>
        <time>2014-03-27T12:52:47Z</time>
      </trkpt>
      <trkpt lat="43.76576" lon="3.29093">
        <ele>498.79</ele>
        <time>2014-03-27T12:53:02Z</time>
      </trkpt>
      <trkpt lat="43.76557" lon="3.29095">
        <ele>497.57</ele>
        <time>2014-03-27T13:01:54Z</time>
      </trkpt>
      <trkpt lat="43.76538" lon="3.29096">
        <ele>499.71</ele>
        <time>2014-03-27T13:02:09Z</time>
      </trkpt>
      <trkpt lat="43.76521" lon="3.29101">
        <ele>499.74</ele>
        <time>2014-03-27T13:02:24Z</time>
      </trkpt>
      <trkpt lat="43.76504" lon="3.29109">
        <ele>496.31</ele>
        <time>2014-03-27T13:02:42Z</time>
      </trkpt>
      <trkpt lat="43.76488" lon="3.29123">
        <ele>492.31</ele>
        <time>2014-03-27T13:02:57Z</time>
      </trkpt>
      <trkpt lat="43.76472" lon="3.29133">
        <ele>488.76</ele>
        <time>2014-03-27T13:03:12Z</time>
      </trkpt>
      <trkpt lat="43.76453" lon="3.29137">
        <ele>480.98</ele>
        <time>2014-03-27T13:03:27Z</time>
      </trkpt>
      <trkpt lat="43.76435" lon="3.29144">
        <ele>480.45</ele>
        <time>2014-03-27T13:03:45Z</time>
      </trkpt>
      <trkpt lat="43.76419" lon="3.29156">
        <ele>478.8</ele>
        <time>2014-03-27T13:04:03Z</time>
      </trkpt>
      <trkpt lat="43.76403" lon="3.29169">
        <ele>477.71</ele>
        <time>2014-03-27T13:04:22Z</time>
      </trkpt>
      <trkpt lat="43.76387" lon="3.29181">
        <ele>473.05</ele>
        <time>2014-03-27T13:04:37Z</time>
      </trkpt>
      <trkpt lat="43.76373" lon="3.29199">
        <ele>476.56</ele>
        <time>2014-03-27T13:04:51Z</time>
      </trkpt>
      <trkpt lat="43.7636" lon="3.29216">
        <ele>468.49</ele>
        <time>2014-03-27T13:05:04Z</time>
      </trkpt>
      <trkpt lat="43.76346" lon="3.29234">
        <ele>468.77</ele>
        <time>2014-03-27T13:05:17Z</time>
      </trkpt>
      <trkpt lat="43.76333" lon="3.29252">
        <ele>466.83</ele>
        <time>2014-03-27T13:05:34Z</time>
      </trkpt>
      <trkpt lat="43.76315" lon="3.29262">
        <ele>466.8</ele>
        <time>2014-03-27T13:05:47Z</time>
      </trkpt>
      <trkpt lat="43.76298" lon="3.29273">
        <ele>472.01</ele>
        <time>2014-03-27T13:06:01Z</time>
      </trkpt>
      <trkpt lat="43.76286" lon="3.29291">
        <ele>465.59</ele>
        <time>2014-03-27T13:06:12Z</time>
      </trkpt>
      <trkpt lat="43.76283" lon="3.29317">
        <ele>464.33</ele>
        <time>2014-03-27T13:06:26Z</time>
      </trkpt>
      <trkpt lat="43.76275" lon="3.2934">
        <ele>465.72</ele>
        <time>2014-03-27T13:06:41Z</time>
      </trkpt>
      <trkpt lat="43.76262" lon="3.29359">
        <ele>466.55</ele>
        <time>2014-03-27T13:06:54Z</time>
      </trkpt>
      <trkpt lat="43.76248" lon="3.29375">
        <ele>466.78</ele>
        <time>2014-03-27T13:07:09Z</time>
      </trkpt>
      <trkpt lat="43.7623" lon="3.29387">
        <ele>468.29</ele>
        <time>2014-03-27T13:07:24Z</time>
      </trkpt>
      <trkpt lat="43.76213" lon="3.29394">
        <ele>463.43</ele>
        <time>2014-03-27T13:07:36Z</time>
      </trkpt>
      <trkpt lat="43.76198" lon="3.29411">
        <ele>463.62</ele>
        <time>2014-03-27T13:07:51Z</time>
      </trkpt>
      <trkpt lat="43.76188" lon="3.29432">
        <ele>461.7</ele>
        <time>2014-03-27T13:08:05Z</time>
      </trkpt>
      <trkpt lat="43.76178" lon="3.29455">
        <ele>455.79</ele>
        <time>2014-03-27T13:08:21Z</time>
      </trkpt>
      <trkpt lat="43.7618" lon="3.2948">
        <ele>456.87</ele>
        <time>2014-03-27T13:08:38Z</time>
      </trkpt>
      <trkpt lat="43.76171" lon="3.29502">
        <ele>454.87</ele>
        <time>2014-03-27T13:08:49Z</time>
      </trkpt>
      <trkpt lat="43.76158" lon="3.29519">
        <ele>454.72</ele>
        <time>2014-03-27T13:09:01Z</time>
      </trkpt>
      <trkpt lat="43.76147" lon="3.2954">
        <ele>452.28</ele>
        <time>2014-03-27T13:09:17Z</time>
      </trkpt>
      <trkpt lat="43.76137" lon="3.29562">
        <ele>453.92</ele>
        <time>2014-03-27T13:09:36Z</time>
      </trkpt>
      <trkpt lat="43.7613" lon="3.29588">
        <ele>458.99</ele>
        <time>2014-03-27T13:09:47Z</time>
      </trkpt>
      <trkpt lat="43.76118" lon="3.29608">
        <ele>455.98</ele>
        <time>2014-03-27T13:10:00Z</time>
      </trkpt>
      <trkpt lat="43.76105" lon="3.29627">
        <ele>457.16</ele>
        <time>2014-03-27T13:10:14Z</time>
      </trkpt>
      <trkpt lat="43.76089" lon="3.2964">
        <ele>457.65</ele>
        <time>2014-03-27T13:10:30Z</time>
      </trkpt>
      <trkpt lat="43.76075" lon="3.29655">
        <ele>455.6</ele>
        <time>2014-03-27T13:10:45Z</time>
      </trkpt>
      <trkpt lat="43.76058" lon="3.29666">
        <ele>454.82</ele>
        <time>2014-03-27T13:11:01Z</time>
      </trkpt>
      <trkpt lat="43.76045" lon="3.29687">
        <ele>457.31</ele>
        <time>2014-03-27T13:11:13Z</time>
      </trkpt>
      <trkpt lat="43.76032" lon="3.29707">
        <ele>455.7</ele>
        <time>2014-03-27T13:11:30Z</time>
      </trkpt>
      <trkpt lat="43.76024" lon="3.29729">
        <ele>456.46</ele>
        <time>2014-03-27T13:11:45Z</time>
      </trkpt>
      <trkpt lat="43.76013" lon="3.29751">
        <ele>458.14</ele>
        <time>2014-03-27T13:12:00Z</time>
      </trkpt>
      <trkpt lat="43.76004" lon="3.29773">
        <ele>458.01</ele>
        <time>2014-03-27T13:12:14Z</time>
      </trkpt>
      <trkpt lat="43.75997" lon="3.29797">
        <ele>458.78</ele>
        <time>2014-03-27T13:12:28Z</time>
      </trkpt>
      <trkpt lat="43.75996" lon="3.29823">
        <ele>458.69</ele>
        <time>2014-03-27T13:12:41Z</time>
      </trkpt>
      <trkpt lat="43.75999" lon="3.29848">
        <ele>459.19</ele>
        <time>2014-03-27T13:12:56Z</time>
      </trkpt>
      <trkpt lat="43.75986" lon="3.29867">
        <ele>455.29</ele>
        <time>2014-03-27T13:13:10Z</time>
      </trkpt>
      <trkpt lat="43.75971" lon="3.29882">
        <ele>455.16</ele>
        <time>2014-03-27T13:13:25Z</time>
      </trkpt>
      <trkpt lat="43.75955" lon="3.29896">
        <ele>454.47</ele>
        <time>2014-03-27T13:13:39Z</time>
      </trkpt>
      <trkpt lat="43.75946" lon="3.29918">
        <ele>457.32</ele>
        <time>2014-03-27T13:13:54Z</time>
      </trkpt>
      <trkpt lat="43.75942" lon="3.29944">
        <ele>454.69</ele>
        <time>2014-03-27T13:14:09Z</time>
      </trkpt>
      <trkpt lat="43.75935" lon="3.29967">
        <ele>454.08</ele>
        <time>2014-03-27T13:14:22Z</time>
      </trkpt>
      <trkpt lat="43.75923" lon="3.29986">
        <ele>454.36</ele>
        <time>2014-03-27T13:14:34Z</time>
      </trkpt>
      <trkpt lat="43.75908" lon="3.3">
        <ele>451.95</ele>
        <time>2014-03-27T13:14:49Z</time>
      </trkpt>
      <trkpt lat="43.75894" lon="3.30016">
        <ele>450.45</ele>
        <time>2014-03-27T13:15:03Z</time>
      </trkpt>
      <trkpt lat="43.75884" lon="3.30038">
        <ele>450.8</ele>
        <time>2014-03-27T13:15:17Z</time>
      </trkpt>
      <trkpt lat="43.75873" lon="3.30057">
        <ele>450.2</ele>
        <time>2014-03-27T13:15:30Z</time>
      </trkpt>
      <trkpt lat="43.75861" lon="3.30078">
        <ele>450.65</ele>
        <time>2014-03-27T13:15:45Z</time>
      </trkpt>
      <trkpt lat="43.7585" lon="3.301">
        <ele>451.29</ele>
        <time>2014-03-27T13:15:58Z</time>
      </trkpt>
      <trkpt lat="43.7584" lon="3.30121">
        <ele>444.46</ele>
        <time>2014-03-27T13:16:14Z</time>
      </trkpt>
      <trkpt lat="43.7583" lon="3.30142">
        <ele>442.25</ele>
        <time>2014-03-27T13:16:28Z</time>
      </trkpt>
      <trkpt lat="43.75821" lon="3.30163">
        <ele>442.19</ele>
        <time>2014-03-27T13:16:41Z</time>
      </trkpt>
      <trkpt lat="43.75809" lon="3.30182">
        <ele>440.45</ele>
        <time>2014-03-27T13:16:55Z</time>
      </trkpt>
      <trkpt lat="43.75793" lon="3.30196">
        <ele>439</ele>
        <time>2014-03-27T13:17:10Z</time>
      </trkpt>
      <trkpt lat="43.75781" lon="3.30215">
        <ele>438.71</ele>
        <time>2014-03-27T13:17:24Z</time>
      </trkpt>
      <trkpt lat="43.75783" lon="3.30241">
        <ele>436.96</ele>
        <time>2014-03-27T13:17:46Z</time>
      </trkpt>
      <trkpt lat="43.75786" lon="3.30268">
        <ele>437.69</ele>
        <time>2014-03-27T13:17:57Z</time>
      </trkpt>
      <trkpt lat="43.75793" lon="3.30291">
        <ele>430.53</ele>
        <time>2014-03-27T13:18:10Z</time>
      </trkpt>
      <trkpt lat="43.75803" lon="3.30314">
        <ele>429.26</ele>
        <time>2014-03-27T13:18:24Z</time>
      </trkpt>
      <trkpt lat="43.75803" lon="3.30341">
        <ele>428.33</ele>
        <time>2014-03-27T13:18:50Z</time>
      </trkpt>
      <trkpt lat="43.75806" lon="3.30367">
        <ele>429.19</ele>
        <time>2014-03-27T13:19:01Z</time>
      </trkpt>
      <trkpt lat="43.75807" lon="3.30391">
        <ele>424.96</ele>
        <time>2014-03-27T13:19:19Z</time>
      </trkpt>
      <trkpt lat="43.75806" lon="3.30417">
        <ele>424.47</ele>
        <time>2014-03-27T13:19:37Z</time>
      </trkpt>
      <trkpt lat="43.75802" lon="3.30442">
        <ele>423.84</ele>
        <time>2014-03-27T13:19:47Z</time>
      </trkpt>
      <trkpt lat="43.75801" lon="3.30468">
        <ele>425.29</ele>
        <time>2014-03-27T13:20:01Z</time>
      </trkpt>
      <trkpt lat="43.75799" lon="3.30493">
        <ele>424.83</ele>
        <time>2014-03-27T13:20:10Z</time>
      </trkpt>
      <trkpt lat="43.75793" lon="3.30518">
        <ele>423.47</ele>
        <time>2014-03-27T13:20:24Z</time>
      </trkpt>
      <trkpt lat="43.75784" lon="3.30541">
        <ele>419.75</ele>
        <time>2014-03-27T13:20:35Z</time>
      </trkpt>
      <trkpt lat="43.75771" lon="3.3056">
        <ele>417.49</ele>
        <time>2014-03-27T13:20:50Z</time>
      </trkpt>
      <trkpt lat="43.75757" lon="3.30578">
        <ele>414.7</ele>
        <time>2014-03-27T13:21:05Z</time>
      </trkpt>
      <trkpt lat="43.75745" lon="3.30599">
        <ele>413.51</ele>
        <time>2014-03-27T13:21:18Z</time>
      </trkpt>
      <trkpt lat="43.75735" lon="3.30619">
        <ele>413.13</ele>
        <time>2014-03-27T13:21:32Z</time>
      </trkpt>
      <trkpt lat="43.75722" lon="3.30638">
        <ele>411.6</ele>
        <time>2014-03-27T13:21:48Z</time>
      </trkpt>
      <trkpt lat="43.75708" lon="3.30656">
        <ele>406.86</ele>
        <time>2014-03-27T13:22:03Z</time>
      </trkpt>
      <trkpt lat="43.75696" lon="3.30676">
        <ele>407.67</ele>
        <time>2014-03-27T13:22:18Z</time>
      </trkpt>
      <trkpt lat="43.7568" lon="3.30689">
        <ele>404.83</ele>
        <time>2014-03-27T13:22:32Z</time>
      </trkpt>
      <trkpt lat="43.75663" lon="3.30699">
        <ele>404.75</ele>
        <time>2014-03-27T13:22:45Z</time>
      </trkpt>
      <trkpt lat="43.75654" lon="3.30721">
        <ele>405.06</ele>
        <time>2014-03-27T13:22:59Z</time>
      </trkpt>
      <trkpt lat="43.75655" lon="3.30748">
        <ele>406.13</ele>
        <time>2014-03-27T13:23:13Z</time>
      </trkpt>
      <trkpt lat="43.75671" lon="3.30759">
        <ele>404.73</ele>
        <time>2014-03-27T13:23:28Z</time>
      </trkpt>
      <trkpt lat="43.75687" lon="3.30743">
        <ele>403.88</ele>
        <time>2014-03-27T13:23:41Z</time>
      </trkpt>
      <trkpt lat="43.75705" lon="3.30741">
        <ele>396.35</ele>
        <time>2014-03-27T13:23:57Z</time>
      </trkpt>
      <trkpt lat="43.75723" lon="3.30738">
        <ele>399.56</ele>
        <time>2014-03-27T13:24:11Z</time>
      </trkpt>
      <trkpt lat="43.75742" lon="3.30738">
        <ele>391.49</ele>
        <time>2014-03-27T13:24:28Z</time>
      </trkpt>
      <trkpt lat="43.7576" lon="3.3074">
        <ele>392.69</ele>
        <time>2014-03-27T13:26:30Z</time>
      </trkpt>
      <trkpt lat="43.75778" lon="3.30739">
        <ele>381.41</ele>
        <time>2014-03-27T13:27:38Z</time>
      </trkpt>
      <trkpt lat="43.75797" lon="3.30741">
        <ele>385.05</ele>
        <time>2014-03-27T13:27:53Z</time>
      </trkpt>
      <trkpt lat="43.75816" lon="3.30739">
        <ele>385.56</ele>
        <time>2014-03-27T13:28:06Z</time>
      </trkpt>
      <trkpt lat="43.75831" lon="3.30753">
        <ele>379.7</ele>
        <time>2014-03-27T13:28:24Z</time>
      </trkpt>
      <trkpt lat="43.75838" lon="3.30776">
        <ele>374.22</ele>
        <time>2014-03-27T13:28:43Z</time>
      </trkpt>
      <trkpt lat="43.75844" lon="3.30801">
        <ele>369.53</ele>
        <time>2014-03-27T13:29:01Z</time>
      </trkpt>
      <trkpt lat="43.75851" lon="3.30824">
        <ele>363.51</ele>
        <time>2014-03-27T13:29:18Z</time>
      </trkpt>
      <trkpt lat="43.75861" lon="3.30846">
        <ele>363.62</ele>
        <time>2014-03-27T13:29:33Z</time>
      </trkpt>
      <trkpt lat="43.7587" lon="3.30868">
        <ele>360.02</ele>
        <time>2014-03-27T13:29:47Z</time>
      </trkpt>
      <trkpt lat="43.75877" lon="3.30891">
        <ele>354.82</ele>
        <time>2014-03-27T13:30:03Z</time>
      </trkpt>
      <trkpt lat="43.75888" lon="3.30912">
        <ele>357.06</ele>
        <time>2014-03-27T13:30:17Z</time>
      </trkpt>
      <trkpt lat="43.75903" lon="3.30927">
        <ele>356.33</ele>
        <time>2014-03-27T13:30:32Z</time>
      </trkpt>
      <trkpt lat="43.75914" lon="3.30947">
        <ele>351.23</ele>
        <time>2014-03-27T13:30:51Z</time>
      </trkpt>
      <trkpt lat="43.759" lon="3.30963">
        <ele>350.07</ele>
        <time>2014-03-27T13:31:39Z</time>
      </trkpt>
      <trkpt lat="43.75882" lon="3.30965">
        <ele>348.13</ele>
        <time>2014-03-27T13:32:14Z</time>
      </trkpt>
      <trkpt lat="43.75871" lon="3.30986">
        <ele>348.94</ele>
        <time>2014-03-27T13:32:37Z</time>
      </trkpt>
      <trkpt lat="43.75862" lon="3.31007">
        <ele>349.23</ele>
        <time>2014-03-27T13:33:08Z</time>
      </trkpt>
      <trkpt lat="43.75857" lon="3.31031">
        <ele>346.94</ele>
        <time>2014-03-27T13:33:28Z</time>
      </trkpt>
      <trkpt lat="43.75851" lon="3.31057">
        <ele>354.64</ele>
        <time>2014-03-27T13:35:56Z</time>
      </trkpt>
      <trkpt lat="43.75848" lon="3.31081">
        <ele>356.89</ele>
        <time>2014-03-27T13:36:11Z</time>
      </trkpt>
      <trkpt lat="43.75838" lon="3.31104">
        <ele>353.53</ele>
        <time>2014-03-27T13:36:34Z</time>
      </trkpt>
      <trkpt lat="43.75829" lon="3.31126">
        <ele>359.64</ele>
        <time>2014-03-27T13:38:04Z</time>
      </trkpt>
      <trkpt lat="43.75814" lon="3.3114">
        <ele>358.48</ele>
        <time>2014-03-27T13:38:27Z</time>
      </trkpt>
      <trkpt lat="43.75798" lon="3.31155">
        <ele>356.49</ele>
        <time>2014-03-27T13:38:40Z</time>
      </trkpt>
      <trkpt lat="43.75781" lon="3.31165">
        <ele>356.28</ele>
        <time>2014-03-27T13:39:02Z</time>
      </trkpt>
      <trkpt lat="43.75764" lon="3.31176">
        <ele>358.62</ele>
        <time>2014-03-27T13:39:20Z</time>
      </trkpt>
      <trkpt lat="43.75748" lon="3.31189">
        <ele>362.67</ele>
        <time>2014-03-27T13:39:36Z</time>
      </trkpt>
      <trkpt lat="43.75729" lon="3.31189">
        <ele>361.49</ele>
        <time>2014-03-27T13:39:54Z</time>
      </trkpt>
      <trkpt lat="43.75712" lon="3.31195">
        <ele>363.28</ele>
        <time>2014-03-27T13:40:11Z</time>
      </trkpt>
      <trkpt lat="43.75713" lon="3.3117">
        <ele>375.11</ele>
        <time>2014-03-27T13:40:48Z</time>
      </trkpt>
      <trkpt lat="43.75721" lon="3.31146">
        <ele>372.21</ele>
        <time>2014-03-27T13:41:10Z</time>
      </trkpt>
      <trkpt lat="43.75723" lon="3.31121">
        <ele>378.53</ele>
        <time>2014-03-27T13:41:27Z</time>
      </trkpt>
      <trkpt lat="43.75724" lon="3.31095">
        <ele>383.52</ele>
        <time>2014-03-27T13:41:44Z</time>
      </trkpt>
      <trkpt lat="43.75724" lon="3.31069">
        <ele>388.43</ele>
        <time>2014-03-27T13:42:00Z</time>
      </trkpt>
      <trkpt lat="43.75725" lon="3.31044">
        <ele>389.69</ele>
        <time>2014-03-27T13:42:17Z</time>
      </trkpt>
      <trkpt lat="43.75706" lon="3.31043">
        <ele>392.62</ele>
        <time>2014-03-27T13:42:56Z</time>
      </trkpt>
      <trkpt lat="43.7569" lon="3.31058">
        <ele>394.63</ele>
        <time>2014-03-27T13:43:13Z</time>
      </trkpt>
      <trkpt lat="43.75673" lon="3.31068">
        <ele>398.05</ele>
        <time>2014-03-27T13:43:31Z</time>
      </trkpt>
      <trkpt lat="43.75655" lon="3.31061">
        <ele>401.07</ele>
        <time>2014-03-27T13:44:08Z</time>
      </trkpt>
      <trkpt lat="43.7564" lon="3.31046">
        <ele>403.48</ele>
        <time>2014-03-27T13:44:39Z</time>
      </trkpt>
      <trkpt lat="43.75622" lon="3.31035">
        <ele>399.12</ele>
        <time>2014-03-27T13:45:06Z</time>
      </trkpt>
      <trkpt lat="43.75604" lon="3.31039">
        <ele>396.26</ele>
        <time>2014-03-27T13:45:22Z</time>
      </trkpt>
      <trkpt lat="43.75585" lon="3.31037">
        <ele>400.08</ele>
        <time>2014-03-27T13:45:37Z</time>
      </trkpt>
      <trkpt lat="43.75567" lon="3.3103">
        <ele>405.19</ele>
        <time>2014-03-27T13:46:03Z</time>
      </trkpt>
      <trkpt lat="43.75548" lon="3.31027">
        <ele>404.66</ele>
        <time>2014-03-27T13:46:23Z</time>
      </trkpt>
      <trkpt lat="43.75536" lon="3.31009">
        <ele>408.31</ele>
        <time>2014-03-27T13:47:33Z</time>
      </trkpt>
      <trkpt lat="43.75527" lon="3.30987">
        <ele>416.24</ele>
        <time>2014-03-27T13:47:51Z</time>
      </trkpt>
      <trkpt lat="43.75523" lon="3.30962">
        <ele>424.61</ele>
        <time>2014-03-27T13:48:13Z</time>
      </trkpt>
      <trkpt lat="43.75515" lon="3.30939">
        <ele>429.55</ele>
        <time>2014-03-27T13:48:34Z</time>
      </trkpt>
      <trkpt lat="43.75502" lon="3.30922">
        <ele>436.4</ele>
        <time>2014-03-27T13:49:02Z</time>
      </trkpt>
      <trkpt lat="43.75485" lon="3.30913">
        <ele>436.71</ele>
        <time>2014-03-27T13:52:04Z</time>
      </trkpt>
      <trkpt lat="43.75468" lon="3.30919">
        <ele>439.43</ele>
        <time>2014-03-27T13:53:14Z</time>
      </trkpt>
      <trkpt lat="43.7545" lon="3.30928">
        <ele>441.81</ele>
        <time>2014-03-27T13:53:40Z</time>
      </trkpt>
      <trkpt lat="43.75439" lon="3.30948">
        <ele>439.75</ele>
        <time>2014-03-27T13:55:38Z</time>
      </trkpt>
      <trkpt lat="43.75428" lon="3.30968">
        <ele>438</ele>
        <time>2014-03-27T13:56:22Z</time>
      </trkpt>
      <trkpt lat="43.75418" lon="3.30988">
        <ele>435.95</ele>
        <time>2014-03-27T13:56:44Z</time>
      </trkpt>
      <trkpt lat="43.75412" lon="3.31013">
        <ele>435.69</ele>
        <time>2014-03-27T13:57:02Z</time>
      </trkpt>
      <trkpt lat="43.75408" lon="3.31037">
        <ele>432.95</ele>
        <time>2014-03-27T13:57:20Z</time>
      </trkpt>
      <trkpt lat="43.75399" lon="3.31059">
        <ele>430.71</ele>
        <time>2014-03-27T13:57:39Z</time>
      </trkpt>
      <trkpt lat="43.75394" lon="3.31084">
        <ele>425.29</ele>
        <time>2014-03-27T13:58:02Z</time>
      </trkpt>
      <trkpt lat="43.75384" lon="3.31106">
        <ele>423.19</ele>
        <time>2014-03-27T13:58:19Z</time>
      </trkpt>
      <trkpt lat="43.75373" lon="3.31127">
        <ele>422.19</ele>
        <time>2014-03-27T13:58:39Z</time>
      </trkpt>
      <trkpt lat="43.75367" lon="3.3115">
        <ele>418.72</ele>
        <time>2014-03-27T13:59:02Z</time>
      </trkpt>
      <trkpt lat="43.7536" lon="3.31174">
        <ele>412.96</ele>
        <time>2014-03-27T13:59:24Z</time>
      </trkpt>
      <trkpt lat="43.75349" lon="3.31194">
        <ele>408.99</ele>
        <time>2014-03-27T13:59:51Z</time>
      </trkpt>
      <trkpt lat="43.75338" lon="3.31215">
        <ele>404.49</ele>
        <time>2014-03-27T14:00:14Z</time>
      </trkpt>
      <trkpt lat="43.75333" lon="3.31241">
        <ele>401.82</ele>
        <time>2014-03-27T14:00:35Z</time>
      </trkpt>
      <trkpt lat="43.7532" lon="3.3126">
        <ele>402.69</ele>
        <time>2014-03-27T14:00:48Z</time>
      </trkpt>
      <trkpt lat="43.75308" lon="3.3128">
        <ele>400.26</ele>
        <time>2014-03-27T14:01:06Z</time>
      </trkpt>
      <trkpt lat="43.75291" lon="3.31288">
        <ele>389.27</ele>
        <time>2014-03-27T14:03:12Z</time>
      </trkpt>
      <trkpt lat="43.75275" lon="3.31301">
        <ele>391.35</ele>
        <time>2014-03-27T14:03:27Z</time>
      </trkpt>
      <trkpt lat="43.75259" lon="3.31315">
        <ele>383.01</ele>
        <time>2014-03-27T14:03:50Z</time>
      </trkpt>
      <trkpt lat="43.75244" lon="3.3133">
        <ele>380.91</ele>
        <time>2014-03-27T14:04:10Z</time>
      </trkpt>
      <trkpt lat="43.75227" lon="3.31341">
        <ele>383.19</ele>
        <time>2014-03-27T14:05:28Z</time>
      </trkpt>
      <trkpt lat="43.75209" lon="3.31343">
        <ele>379.59</ele>
        <time>2014-03-27T14:05:43Z</time>
      </trkpt>
      <trkpt lat="43.75192" lon="3.31351">
        <ele>378.34</ele>
        <time>2014-03-27T14:05:56Z</time>
      </trkpt>
      <trkpt lat="43.75176" lon="3.31363">
        <ele>376.7</ele>
        <time>2014-03-27T14:06:16Z</time>
      </trkpt>
      <trkpt lat="43.75158" lon="3.31374">
        <ele>376.63</ele>
        <time>2014-03-27T14:06:31Z</time>
      </trkpt>
      <trkpt lat="43.75142" lon="3.31386">
        <ele>374.15</ele>
        <time>2014-03-27T14:06:56Z</time>
      </trkpt>
      <trkpt lat="43.7513" lon="3.31406">
        <ele>373.85</ele>
        <time>2014-03-27T14:07:13Z</time>
      </trkpt>
      <trkpt lat="43.75117" lon="3.31426">
        <ele>369.58</ele>
        <time>2014-03-27T14:08:00Z</time>
      </trkpt>
      <trkpt lat="43.75106" lon="3.31446">
        <ele>370.75</ele>
        <time>2014-03-27T14:08:34Z</time>
      </trkpt>
      <trkpt lat="43.75087" lon="3.31445">
        <ele>371.82</ele>
        <time>2014-03-27T14:15:52Z</time>
      </trkpt>
      <trkpt lat="43.75069" lon="3.31443">
        <ele>371.42</ele>
        <time>2014-03-27T14:16:08Z</time>
      </trkpt>
      <trkpt lat="43.75051" lon="3.31443">
        <ele>372.63</ele>
        <time>2014-03-27T14:16:27Z</time>
      </trkpt>
      <trkpt lat="43.75033" lon="3.31438">
        <ele>369.77</ele>
        <time>2014-03-27T14:16:46Z</time>
      </trkpt>
      <trkpt lat="43.75014" lon="3.3144">
        <ele>370.15</ele>
        <time>2014-03-27T14:17:06Z</time>
      </trkpt>
      <trkpt lat="43.74997" lon="3.31449">
        <ele>375.25</ele>
        <time>2014-03-27T14:17:24Z</time>
      </trkpt>
      <trkpt lat="43.7498" lon="3.31457">
        <ele>376.9</ele>
        <time>2014-03-27T14:17:46Z</time>
      </trkpt>
      <trkpt lat="43.74962" lon="3.31464">
        <ele>379.99</ele>
        <time>2014-03-27T14:18:09Z</time>
      </trkpt>
      <trkpt lat="43.74944" lon="3.31465">
        <ele>380.22</ele>
        <time>2014-03-27T14:18:27Z</time>
      </trkpt>
      <trkpt lat="43.74925" lon="3.31461">
        <ele>379.59</ele>
        <time>2014-03-27T14:18:44Z</time>
      </trkpt>
      <trkpt lat="43.74907" lon="3.31459">
        <ele>382.02</ele>
        <time>2014-03-27T14:18:59Z</time>
      </trkpt>
      <trkpt lat="43.74891" lon="3.31445">
        <ele>384.6</ele>
        <time>2014-03-27T14:19:15Z</time>
      </trkpt>
      <trkpt lat="43.74884" lon="3.31421">
        <ele>383.55</ele>
        <time>2014-03-27T14:19:32Z</time>
      </trkpt>
      <trkpt lat="43.74879" lon="3.31397">
        <ele>380.5</ele>
        <time>2014-03-27T14:19:47Z</time>
      </trkpt>
      <trkpt lat="43.74874" lon="3.31373">
        <ele>381.39</ele>
        <time>2014-03-27T14:20:02Z</time>
      </trkpt>
      <trkpt lat="43.7487" lon="3.31348">
        <ele>373.64</ele>
        <time>2014-03-27T14:20:18Z</time>
      </trkpt>
      <trkpt lat="43.74865" lon="3.31324">
        <ele>375.51</ele>
        <time>2014-03-27T14:20:33Z</time>
      </trkpt>
      <trkpt lat="43.74862" lon="3.31298">
        <ele>376.58</ele>
        <time>2014-03-27T14:20:49Z</time>
      </trkpt>
      <trkpt lat="43.74849" lon="3.31278">
        <ele>379.34</ele>
        <time>2014-03-27T14:21:09Z</time>
      </trkpt>
      <trkpt lat="43.74847" lon="3.31253">
        <ele>375.63</ele>
        <time>2014-03-27T14:21:30Z</time>
      </trkpt>
      <trkpt lat="43.7484" lon="3.31229">
        <ele>382.82</ele>
        <time>2014-03-27T14:21:47Z</time>
      </trkpt>
      <trkpt lat="43.74827" lon="3.3121">
        <ele>384.27</ele>
        <time>2014-03-27T14:22:02Z</time>
      </trkpt>
      <trkpt lat="43.74808" lon="3.31203">
        <ele>385.39</ele>
        <time>2014-03-27T14:22:19Z</time>
      </trkpt>
      <trkpt lat="43.74797" lon="3.31184">
        <ele>385.35</ele>
        <time>2014-03-27T14:22:39Z</time>
      </trkpt>
      <trkpt lat="43.74788" lon="3.31161">
        <ele>389.91</ele>
        <time>2014-03-27T14:23:19Z</time>
      </trkpt>
      <trkpt lat="43.74778" lon="3.31139">
        <ele>392.91</ele>
        <time>2014-03-27T14:23:37Z</time>
      </trkpt>
      <trkpt lat="43.74766" lon="3.3112">
        <ele>397.38</ele>
        <time>2014-03-27T14:23:58Z</time>
      </trkpt>
      <trkpt lat="43.74757" lon="3.31097">
        <ele>402.17</ele>
        <time>2014-03-27T14:24:23Z</time>
      </trkpt>
      <trkpt lat="43.7475" lon="3.31073">
        <ele>407.57</ele>
        <time>2014-03-27T14:24:49Z</time>
      </trkpt>
      <trkpt lat="43.74747" lon="3.31048">
        <ele>409.63</ele>
        <time>2014-03-27T14:25:14Z</time>
      </trkpt>
      <trkpt lat="43.74738" lon="3.31026">
        <ele>410.69</ele>
        <time>2014-03-27T14:25:37Z</time>
      </trkpt>
      <trkpt lat="43.74726" lon="3.31008">
        <ele>410.08</ele>
        <time>2014-03-27T14:25:56Z</time>
      </trkpt>
      <trkpt lat="43.74719" lon="3.30985">
        <ele>412.22</ele>
        <time>2014-03-27T14:26:17Z</time>
      </trkpt>
      <trkpt lat="43.74709" lon="3.30964">
        <ele>414.67</ele>
        <time>2014-03-27T14:26:39Z</time>
      </trkpt>
      <trkpt lat="43.74699" lon="3.30942">
        <ele>412.76</ele>
        <time>2014-03-27T14:26:56Z</time>
      </trkpt>
      <trkpt lat="43.74689" lon="3.3092">
        <ele>413.71</ele>
        <time>2014-03-27T14:27:15Z</time>
      </trkpt>
      <trkpt lat="43.7468" lon="3.30897">
        <ele>413.19</ele>
        <time>2014-03-27T14:27:32Z</time>
      </trkpt>
      <trkpt lat="43.74671" lon="3.30875">
        <ele>411.49</ele>
        <time>2014-03-27T14:27:47Z</time>
      </trkpt>
      <trkpt lat="43.74663" lon="3.30852">
        <ele>413.5</ele>
        <time>2014-03-27T14:28:02Z</time>
      </trkpt>
      <trkpt lat="43.74655" lon="3.3083">
        <ele>410.72</ele>
        <time>2014-03-27T14:28:18Z</time>
      </trkpt>
      <trkpt lat="43.74644" lon="3.30809">
        <ele>416.68</ele>
        <time>2014-03-27T14:28:31Z</time>
      </trkpt>
      <trkpt lat="43.74634" lon="3.30787">
        <ele>414.7</ele>
        <time>2014-03-27T14:28:55Z</time>
      </trkpt>
      <trkpt lat="43.74626" lon="3.30764">
        <ele>406.31</ele>
        <time>2014-03-27T14:29:13Z</time>
      </trkpt>
      <trkpt lat="43.74616" lon="3.30743">
        <ele>406.24</ele>
        <time>2014-03-27T14:29:28Z</time>
      </trkpt>
      <trkpt lat="43.7461" lon="3.30719">
        <ele>406.88</ele>
        <time>2014-03-27T14:30:04Z</time>
      </trkpt>
      <trkpt lat="43.74604" lon="3.30694">
        <ele>404.19</ele>
        <time>2014-03-27T14:30:19Z</time>
      </trkpt>
      <trkpt lat="43.74602" lon="3.30667">
        <ele>408.47</ele>
        <time>2014-03-27T14:32:35Z</time>
      </trkpt>
      <trkpt lat="43.74598" lon="3.30644">
        <ele>409.19</ele>
        <time>2014-03-27T14:32:53Z</time>
      </trkpt>
      <trkpt lat="43.74597" lon="3.30619">
        <ele>410.96</ele>
        <time>2014-03-27T14:33:11Z</time>
      </trkpt>
      <trkpt lat="43.74588" lon="3.30596">
        <ele>412.1</ele>
        <time>2014-03-27T14:33:27Z</time>
      </trkpt>
      <trkpt lat="43.74581" lon="3.30572">
        <ele>415.68</ele>
        <time>2014-03-27T14:33:45Z</time>
      </trkpt>
      <trkpt lat="43.7458" lon="3.30547">
        <ele>414.92</ele>
        <time>2014-03-27T14:34:02Z</time>
      </trkpt>
      <trkpt lat="43.74575" lon="3.30523">
        <ele>415.96</ele>
        <time>2014-03-27T14:34:18Z</time>
      </trkpt>
      <trkpt lat="43.74559" lon="3.30512">
        <ele>415.93</ele>
        <time>2014-03-27T14:35:10Z</time>
      </trkpt>
      <trkpt lat="43.74544" lon="3.30525">
        <ele>420.85</ele>
        <time>2014-03-27T14:35:27Z</time>
      </trkpt>
      <trkpt lat="43.74527" lon="3.30536">
        <ele>421.87</ele>
        <time>2014-03-27T14:35:45Z</time>
      </trkpt>
      <trkpt lat="43.74511" lon="3.30548">
        <ele>419.03</ele>
        <time>2014-03-27T14:36:02Z</time>
      </trkpt>
      <trkpt lat="43.74495" lon="3.30562">
        <ele>416.38</ele>
        <time>2014-03-27T14:36:19Z</time>
      </trkpt>
      <trkpt lat="43.7448" lon="3.30577">
        <ele>416.81</ele>
        <time>2014-03-27T14:36:35Z</time>
      </trkpt>
      <trkpt lat="43.74465" lon="3.30593">
        <ele>411.24</ele>
        <time>2014-03-27T14:36:53Z</time>
      </trkpt>
      <trkpt lat="43.74455" lon="3.30615">
        <ele>407.58</ele>
        <time>2014-03-27T14:37:10Z</time>
      </trkpt>
      <trkpt lat="43.74439" lon="3.30626">
        <ele>408.2</ele>
        <time>2014-03-27T14:37:40Z</time>
      </trkpt>
      <trkpt lat="43.74423" lon="3.30637">
        <ele>406.15</ele>
        <time>2014-03-27T14:37:58Z</time>
      </trkpt>
      <trkpt lat="43.74406" lon="3.30646">
        <ele>398.19</ele>
        <time>2014-03-27T14:38:29Z</time>
      </trkpt>
      <trkpt lat="43.74389" lon="3.30655">
        <ele>395.51</ele>
        <time>2014-03-27T14:38:42Z</time>
      </trkpt>
      <trkpt lat="43.74372" lon="3.30664">
        <ele>390.45</ele>
        <time>2014-03-27T14:39:05Z</time>
      </trkpt>
      <trkpt lat="43.74356" lon="3.30651">
        <ele>389.28</ele>
        <time>2014-03-27T14:39:37Z</time>
      </trkpt>
      <trkpt lat="43.74358" lon="3.30626">
        <ele>386.71</ele>
        <time>2014-03-27T14:39:54Z</time>
      </trkpt>
      <trkpt lat="43.74342" lon="3.30614">
        <ele>382.59</ele>
        <time>2014-03-27T14:40:15Z</time>
      </trkpt>
      <trkpt lat="43.74324" lon="3.30621">
        <ele>378.08</ele>
        <time>2014-03-27T14:40:32Z</time>
      </trkpt>
      <trkpt lat="43.74307" lon="3.30627">
        <ele>372.02</ele>
        <time>2014-03-27T14:40:49Z</time>
      </trkpt>
      <trkpt lat="43.7429" lon="3.30636">
        <ele>369.72</ele>
        <time>2014-03-27T14:41:06Z</time>
      </trkpt>
      <trkpt lat="43.74273" lon="3.30646">
        <ele>366.97</ele>
        <time>2014-03-27T14:41:22Z</time>
      </trkpt>
      <trkpt lat="43.74255" lon="3.30652">
        <ele>365.19</ele>
        <time>2014-03-27T14:41:39Z</time>
      </trkpt>
      <trkpt lat="43.74237" lon="3.30655">
        <ele>360.87</ele>
        <time>2014-03-27T14:41:54Z</time>
      </trkpt>
      <trkpt lat="43.74219" lon="3.30663">
        <ele>359.93</ele>
        <time>2014-03-27T14:42:27Z</time>
      </trkpt>
      <trkpt lat="43.74207" lon="3.30681">
        <ele>354.04</ele>
        <time>2014-03-27T14:42:44Z</time>
      </trkpt>
      <trkpt lat="43.74193" lon="3.30698">
        <ele>351.22</ele>
        <time>2014-03-27T14:43:04Z</time>
      </trkpt>
      <trkpt lat="43.7418" lon="3.30716">
        <ele>352.05</ele>
        <time>2014-03-27T14:43:19Z</time>
      </trkpt>
      <trkpt lat="43.74168" lon="3.30735">
        <ele>350.55</ele>
        <time>2014-03-27T14:43:31Z</time>
      </trkpt>
      <trkpt lat="43.74152" lon="3.30747">
        <ele>351.65</ele>
        <time>2014-03-27T14:43:47Z</time>
      </trkpt>
      <trkpt lat="43.74134" lon="3.30754">
        <ele>350.54</ele>
        <time>2014-03-27T14:44:07Z</time>
      </trkpt>
      <trkpt lat="43.74117" lon="3.30761">
        <ele>351.71</ele>
        <time>2014-03-27T14:44:22Z</time>
      </trkpt>
      <trkpt lat="43.741" lon="3.30773">
        <ele>352.25</ele>
        <time>2014-03-27T14:44:38Z</time>
      </trkpt>
      <trkpt lat="43.7409" lon="3.30794">
        <ele>353.49</ele>
        <time>2014-03-27T14:44:54Z</time>
      </trkpt>
      <trkpt lat="43.74077" lon="3.30812">
        <ele>350.21</ele>
        <time>2014-03-27T14:45:08Z</time>
      </trkpt>
      <trkpt lat="43.74074" lon="3.30837">
        <ele>347.7</ele>
        <time>2014-03-27T14:45:36Z</time>
      </trkpt>
      <trkpt lat="43.74072" lon="3.30863">
        <ele>341.32</ele>
        <time>2014-03-27T14:46:39Z</time>
      </trkpt>
      <trkpt lat="43.74063" lon="3.30885">
        <ele>335.25</ele>
        <time>2014-03-27T14:46:55Z</time>
      </trkpt>
      <trkpt lat="43.74048" lon="3.30901">
        <ele>334.37</ele>
        <time>2014-03-27T14:47:09Z</time>
      </trkpt>
      <trkpt lat="43.74031" lon="3.30913">
        <ele>334.39</ele>
        <time>2014-03-27T14:47:27Z</time>
      </trkpt>
      <trkpt lat="43.74015" lon="3.30925">
        <ele>328.89</ele>
        <time>2014-03-27T14:47:43Z</time>
      </trkpt>
      <trkpt lat="43.74" lon="3.3094">
        <ele>324.95</ele>
        <time>2014-03-27T14:48:00Z</time>
      </trkpt>
      <trkpt lat="43.73982" lon="3.30946">
        <ele>322.29</ele>
        <time>2014-03-27T14:48:15Z</time>
      </trkpt>
      <trkpt lat="43.73964" lon="3.30955">
        <ele>311.65</ele>
        <time>2014-03-27T14:51:09Z</time>
      </trkpt>
      <trkpt lat="43.73949" lon="3.30967">
        <ele>313.87</ele>
        <time>2014-03-27T14:51:42Z</time>
      </trkpt>
      <trkpt lat="43.73932" lon="3.30979">
        <ele>306.71</ele>
        <time>2014-03-27T14:52:24Z</time>
      </trkpt>
      <trkpt lat="43.73915" lon="3.3099">
        <ele>304.5</ele>
        <time>2014-03-27T14:52:42Z</time>
      </trkpt>
      <trkpt lat="43.73898" lon="3.30998">
        <ele>301.21</ele>
        <time>2014-03-27T14:53:09Z</time>
      </trkpt>
      <trkpt lat="43.73881" lon="3.31009">
        <ele>297.72</ele>
        <time>2014-03-27T14:53:27Z</time>
      </trkpt>
      <trkpt lat="43.73866" lon="3.31026">
        <ele>297.86</ele>
        <time>2014-03-27T14:53:53Z</time>
      </trkpt>
      <trkpt lat="43.73848" lon="3.3103">
        <ele>278.95</ele>
        <time>2014-03-27T14:54:15Z</time>
      </trkpt>
      <trkpt lat="43.73837" lon="3.31051">
        <ele>287.46</ele>
        <time>2014-03-27T14:54:32Z</time>
      </trkpt>
      <trkpt lat="43.7383" lon="3.31074">
        <ele>289.04</ele>
        <time>2014-03-27T14:54:55Z</time>
      </trkpt>
      <trkpt lat="43.73816" lon="3.3109">
        <ele>287.47</ele>
        <time>2014-03-27T14:55:14Z</time>
      </trkpt>
      <trkpt lat="43.738" lon="3.31101">
        <ele>282.19</ele>
        <time>2014-03-27T14:55:41Z</time>
      </trkpt>
      <trkpt lat="43.73782" lon="3.31093">
        <ele>282.93</ele>
        <time>2014-03-27T14:56:26Z</time>
      </trkpt>
      <trkpt lat="43.73764" lon="3.31086">
        <ele>282.7</ele>
        <time>2014-03-27T14:56:52Z</time>
      </trkpt>
      <trkpt lat="43.73747" lon="3.31079">
        <ele>282.11</ele>
        <time>2014-03-27T14:57:04Z</time>
      </trkpt>
      <trkpt lat="43.73728" lon="3.31073">
        <ele>270.54</ele>
        <time>2014-03-27T14:58:09Z</time>
      </trkpt>
      <trkpt lat="43.73711" lon="3.31067">
        <ele>259.13</ele>
        <time>2014-03-27T14:58:54Z</time>
      </trkpt>
      <trkpt lat="43.73695" lon="3.31052">
        <ele>264.98</ele>
        <time>2014-03-27T14:59:31Z</time>
      </trkpt>
      <trkpt lat="43.73694" lon="3.31079">
        <ele>248.49</ele>
        <time>2014-03-27T15:00:02Z</time>
      </trkpt>
      <trkpt lat="43.73683" lon="3.31098">
        <ele>249.27</ele>
        <time>2014-03-27T15:00:16Z</time>
      </trkpt>
      <trkpt lat="43.73673" lon="3.3112">
        <ele>241.05</ele>
        <time>2014-03-27T15:00:46Z</time>
      </trkpt>
      <trkpt lat="43.73666" lon="3.31144">
        <ele>235.8</ele>
        <time>2014-03-27T15:01:21Z</time>
      </trkpt>
      <trkpt lat="43.73649" lon="3.31154">
        <ele>238.14</ele>
        <time>2014-03-27T15:02:06Z</time>
      </trkpt>
      <trkpt lat="43.73637" lon="3.31136">
        <ele>237.31</ele>
        <time>2014-03-27T15:02:30Z</time>
      </trkpt>
      <trkpt lat="43.73623" lon="3.3112">
        <ele>220.52</ele>
        <time>2014-03-27T15:03:10Z</time>
      </trkpt>
      <trkpt lat="43.73605" lon="3.31112">
        <ele>224.96</ele>
        <time>2014-03-27T15:03:34Z</time>
      </trkpt>
      <trkpt lat="43.73587" lon="3.31116">
        <ele>217.99</ele>
        <time>2014-03-27T15:03:56Z</time>
      </trkpt>
      <trkpt lat="43.73569" lon="3.31105">
        <ele>221.13</ele>
        <time>2014-03-27T15:04:35Z</time>
      </trkpt>
      <trkpt lat="43.73549" lon="3.31104">
        <ele>215.54</ele>
        <time>2014-03-27T15:04:57Z</time>
      </trkpt>
      <trkpt lat="43.73532" lon="3.31114">
        <ele>215.07</ele>
        <time>2014-03-27T15:06:25Z</time>
      </trkpt>
      <trkpt lat="43.73515" lon="3.31104">
        <ele>206.12</ele>
        <time>2014-03-27T15:07:06Z</time>
      </trkpt>
      <trkpt lat="43.73499" lon="3.31116">
        <ele>196.95</ele>
        <time>2014-03-27T15:07:23Z</time>
      </trkpt>
      <trkpt lat="43.73483" lon="3.3113">
        <ele>188.94</ele>
        <time>2014-03-27T15:07:48Z</time>
      </trkpt>
      <trkpt lat="43.73468" lon="3.31144">
        <ele>189.68</ele>
        <time>2014-03-27T15:08:04Z</time>
      </trkpt>
      <trkpt lat="43.73454" lon="3.31161">
        <ele>194.2</ele>
        <time>2014-03-27T15:08:26Z</time>
      </trkpt>
      <trkpt lat="43.73443" lon="3.31183">
        <ele>195.35</ele>
        <time>2014-03-27T15:08:40Z</time>
      </trkpt>
      <trkpt lat="43.73427" lon="3.31195">
        <ele>186.87</ele>
        <time>2014-03-27T15:09:00Z</time>
      </trkpt>
      <trkpt lat="43.73407" lon="3.31198">
        <ele>181.82</ele>
        <time>2014-03-27T15:09:11Z</time>
      </trkpt>
      <trkpt lat="43.73395" lon="3.31216">
        <ele>187.57</ele>
        <time>2014-03-27T15:09:25Z</time>
      </trkpt>
      <trkpt lat="43.73384" lon="3.31237">
        <ele>190.91</ele>
        <time>2014-03-27T15:10:02Z</time>
      </trkpt>
      <trkpt lat="43.73371" lon="3.31256">
        <ele>186</ele>
        <time>2014-03-27T15:10:31Z</time>
      </trkpt>
      <trkpt lat="43.73357" lon="3.31272">
        <ele>185.19</ele>
        <time>2014-03-27T15:10:58Z</time>
      </trkpt>
      <trkpt lat="43.73346" lon="3.31294">
        <ele>177.87</ele>
        <time>2014-03-27T15:11:14Z</time>
      </trkpt>
      <trkpt lat="43.73337" lon="3.31318">
        <ele>174.57</ele>
        <time>2014-03-27T15:11:29Z</time>
      </trkpt>
      <trkpt lat="43.73333" lon="3.31343">
        <ele>171.23</ele>
        <time>2014-03-27T15:11:44Z</time>
      </trkpt>
      <trkpt lat="43.73319" lon="3.31359">
        <ele>168.66</ele>
        <time>2014-03-27T15:12:00Z</time>
      </trkpt>
      <trkpt lat="43.73314" lon="3.31384">
        <ele>168.36</ele>
        <time>2014-03-27T15:12:13Z</time>
      </trkpt>
      <trkpt lat="43.73314" lon="3.31411">
        <ele>167.51</ele>
        <time>2014-03-27T15:12:29Z</time>
      </trkpt>
      <trkpt lat="43.73296" lon="3.31416">
        <ele>168.74</ele>
        <time>2014-03-27T15:12:40Z</time>
      </trkpt>
      <trkpt lat="43.7329" lon="3.3144">
        <ele>185.64</ele>
        <time>2014-03-27T15:13:07Z</time>
      </trkpt>
      <trkpt lat="43.73294" lon="3.31465">
        <ele>185</ele>
        <time>2014-03-27T15:13:28Z</time>
      </trkpt>
      <trkpt lat="43.73286" lon="3.31488">
        <ele>172.29</ele>
        <time>2014-03-27T15:13:45Z</time>
      </trkpt>
      <trkpt lat="43.73282" lon="3.31513">
        <ele>167.59</ele>
        <time>2014-03-27T15:14:01Z</time>
      </trkpt>
      <trkpt lat="43.73291" lon="3.31535">
        <ele>170.82</ele>
        <time>2014-03-27T15:14:15Z</time>
      </trkpt>
      <trkpt lat="43.73293" lon="3.3156">
        <ele>175.38</ele>
        <time>2014-03-27T15:14:33Z</time>
      </trkpt>
      <trkpt lat="43.7329" lon="3.31586">
        <ele>181.19</ele>
        <time>2014-03-27T15:16:37Z</time>
      </trkpt>
    </trkseg>
  </trk>
</gpx>